Wetterdaten: Donnerstag, 14.10.2021
Datum Zeit Temp. Aussen Temp. o. S. Temp +5cm Feuchte Auss Luftdruck Regen Sonnenschein Regendauer Solar Windben Empfang
14.10.2021 00:00 10,7 C 10,0 C 8,9 C 90 % 1027,2 hPa 0,0 l/m 0 min 0 min 0 W/m 0,0 km/h (0 Bft) 100,00 %
14.10.2021 00:02 10,7 C 10,0 C 8,9 C 90 % 1027,2 hPa 0,0 l/m 0 min 0 min 0 W/m 3,2 km/h (1 Bft) 97,62 %
14.10.2021 00:04 10,7 C 10,0 C 8,9 C 90 % 1027,2 hPa 0,0 l/m 0 min 0 min 0 W/m 0,0 km/h (0 Bft) 100,00 %
14.10.2021 00:08 10,6 C 10,0 C 9,5 C 90 % 1027,1 hPa 0,0 l/m 0 min 0 min 0 W/m 3,2 km/h (1 Bft) 97,87 %
14.10.2021 00:10 10,6 C 10,0 C 9,5 C 90 % 1027,1 hPa 0,0 l/m 0 min 0 min 0 W/m 0,0 km/h (0 Bft) 97,87 %
14.10.2021 00:12 10,6 C 10,0 C 9,5 C 91 % 1027,1 hPa 0,0 l/m 0 min 0 min 0 W/m 0,0 km/h (0 Bft) 95,74 %
14.10.2021 00:14 10,6 C 10,0 C 9,5 C 91 % 1027,2 hPa 0,0 l/m 0 min 0 min 0 W/m 3,2 km/h (1 Bft) 100,00 %
14.10.2021 00:16 10,6 C 10,0 C 9,5 C 91 % 1027,1 hPa 0,0 l/m 0 min 0 min 0 W/m 3,2 km/h (1 Bft) 97,87 %
14.10.2021 00:18 10,6 C 10,0 C 9,5 C 91 % 1027,1 hPa 0,0 l/m 0 min 0 min 0 W/m 3,2 km/h (1 Bft) 97,87 %
14.10.2021 00:20 10,6 C 10,0 C 9,5 C 91 % 1027,1 hPa 0,0 l/m 0 min 0 min 0 W/m 3,2 km/h (1 Bft) 93,62 %
14.10.2021 00:22 10,6 C 10,0 C 9,5 C 91 % 1027,1 hPa 0,0 l/m 0 min 0 min 0 W/m 0,0 km/h (0 Bft) 93,62 %
14.10.2021 00:24 10,6 C 10,0 C 9,5 C 91 % 1027,0 hPa 0,0 l/m 0 min 0 min 0 W/m 3,2 km/h (1 Bft) 93,48 %
14.10.2021 00:26 10,6 C 10,0 C 9,5 C 91 % 1026,9 hPa 0,0 l/m 0 min 0 min 0 W/m 9,7 km/h (2 Bft) 95,74 %
14.10.2021 00:28 10,6 C 10,0 C 9,5 C 91 % 1026,9 hPa 0,0 l/m 0 min 0 min 0 W/m 6,4 km/h (2 Bft) 95,83 %
14.10.2021 00:30 10,6 C 10,0 C 9,5 C 91 % 1026,9 hPa 0,0 l/m 0 min 0 min 0 W/m 0,0 km/h (0 Bft) 95,65 %
14.10.2021 00:32 10,6 C 10,0 C 9,5 C 91 % 1026,9 hPa 0,0 l/m 0 min 0 min 0 W/m 3,2 km/h (1 Bft) 91,49 %
14.10.2021 00:34 10,6 C 10,0 C 9,5 C 91 % 1026,9 hPa 0,0 l/m 0 min 0 min 0 W/m 6,4 km/h (2 Bft) 93,62 %
14.10.2021 00:36 10,6 C 10,0 C 9,5 C 91 % 1026,9 hPa 0,0 l/m 0 min 0 min 0 W/m 6,4 km/h (2 Bft) 93,62 %
14.10.2021 00:38 10,6 C 10,0 C 9,5 C 91 % 1026,8 hPa 0,0 l/m 0 min 0 min 0 W/m 6,4 km/h (2 Bft) 91,49 %
14.10.2021 00:40 10,6 C 10,0 C 9,5 C 91 % 1026,8 hPa 0,0 l/m 0 min 0 min 0 W/m 3,2 km/h (1 Bft) 95,74 %
14.10.2021 00:42 10,6 C 10,0 C 9,5 C 91 % 1026,8 hPa 0,0 l/m 0 min 0 min 0 W/m 3,2 km/h (1 Bft) 95,74 %
14.10.2021 00:44 10,6 C 10,0 C 9,5 C 90 % 1026,8 hPa 0,0 l/m 0 min 0 min 0 W/m 0,0 km/h (0 Bft) 95,65 %
14.10.2021 00:46 10,6 C 10,0 C 9,5 C 90 % 1026,8 hPa 0,0 l/m 0 min 0 min 0 W/m 3,2 km/h (1 Bft) 95,74 %
14.10.2021 00:48 10,6 C 10,0 C 9,5 C 90 % 1026,8 hPa 0,0 l/m 0 min 0 min 0 W/m 3,2 km/h (1 Bft) 95,74 %
14.10.2021 00:50 10,6 C 10,0 C 9,5 C 90 % 1026,8 hPa 0,0 l/m 0 min 0 min 0 W/m 3,2 km/h (1 Bft) 95,74 %
14.10.2021 00:52 10,6 C 10,0 C 9,5 C 90 % 1026,8 hPa 0,0 l/m 0 min 0 min 0 W/m 3,2 km/h (1 Bft) 93,62 %
14.10.2021 00:54 10,6 C 10,0 C 9,5 C 90 % 1026,8 hPa 0,0 l/m 0 min 0 min 0 W/m 3,2 km/h (1 Bft) 95,65 %
14.10.2021 00:56 10,6 C 10,0 C 9,5 C 90 % 1026,8 hPa 0,0 l/m 0 min 0 min 0 W/m 3,2 km/h (1 Bft) 93,62 %
14.10.2021 00:58 10,6 C 10,0 C 9,5 C 90 % 1026,8 hPa 0,0 l/m 0 min 0 min 0 W/m 0,0 km/h (0 Bft) 95,74 %
14.10.2021 01:00 10,6 C 10,0 C 9,5 C 90 % 1026,8 hPa 0,0 l/m 0 min 0 min 0 W/m 6,4 km/h (2 Bft) 95,74 %
14.10.2021 01:02 10,6 C 10,0 C 9,5 C 90 % 1026,8 hPa 0,0 l/m 0 min 0 min 0 W/m 3,2 km/h (1 Bft) 95,74 %
14.10.2021 01:04 10,6 C 10,0 C 9,5 C 90 % 1026,8 hPa 0,0 l/m 0 min 0 min 0 W/m 3,2 km/h (1 Bft) 95,74 %
14.10.2021 01:06 10,6 C 10,0 C 9,5 C 90 % 1026,8 hPa 0,0 l/m 0 min 0 min 0 W/m 3,2 km/h (1 Bft) 95,74 %
14.10.2021 01:08 10,6 C 10,0 C 9,5 C 90 % 1026,8 hPa 0,0 l/m 0 min 0 min 0 W/m 6,4 km/h (2 Bft) 95,65 %
14.10.2021 01:10 10,6 C 10,0 C 9,5 C 90 % 1026,8 hPa 0,0 l/m 0 min 0 min 0 W/m 9,7 km/h (2 Bft) 97,87 %
14.10.2021 01:12 10,6 C 10,0 C 9,5 C 90 % 1026,8 hPa 0,0 l/m 0 min 0 min 0 W/m 3,2 km/h (1 Bft) 97,87 %
14.10.2021 01:14 10,6 C 10,0 C 9,5 C 90 % 1026,7 hPa 0,0 l/m 0 min 0 min 0 W/m 3,2 km/h (1 Bft) 95,74 %
14.10.2021 01:16 10,6 C 10,0 C 9,5 C 90 % 1026,7 hPa 0,0 l/m 0 min 0 min 0 W/m 6,4 km/h (2 Bft) 95,74 %
14.10.2021 01:18 10,6 C 10,0 C 9,5 C 90 % 1026,7 hPa 0,0 l/m 0 min 0 min 0 W/m 12,9 km/h (3 Bft) 97,83 %
14.10.2021 01:20 10,6 C 10,0 C 9,5 C 90 % 1026,6 hPa 0,0 l/m 0 min 0 min 0 W/m 3,2 km/h (1 Bft) 100,00 %
14.10.2021 01:22 10,6 C 10,0 C 9,5 C 90 % 1026,6 hPa 0,0 l/m 0 min 0 min 0 W/m 3,2 km/h (1 Bft) 100,00 %
14.10.2021 01:24 10,6 C 10,0 C 9,5 C 90 % 1026,6 hPa 0,0 l/m 0 min 0 min 0 W/m 3,2 km/h (1 Bft) 97,87 %
14.10.2021 01:26 10,6 C 10,0 C 9,5 C 90 % 1026,6 hPa 0,0 l/m 0 min 0 min 0 W/m 3,2 km/h (1 Bft) 97,87 %
14.10.2021 01:28 10,6 C 10,0 C 9,5 C 90 % 1026,7 hPa 0,0 l/m 0 min 0 min 0 W/m 6,4 km/h (2 Bft) 100,00 %
14.10.2021 01:30 10,6 C 10,0 C 9,5 C 90 % 1026,7 hPa 0,0 l/m 0 min 0 min 0 W/m 6,4 km/h (2 Bft) 97,83 %
14.10.2021 01:32 10,6 C 10,0 C 9,5 C 90 % 1026,6 hPa 0,0 l/m 0 min 0 min 0 W/m 3,2 km/h (1 Bft) 100,00 %
14.10.2021 01:34 10,6 C 10,0 C 9,5 C 90 % 1026,7 hPa 0,0 l/m 0 min 0 min 0 W/m 3,2 km/h (1 Bft) 100,00 %
14.10.2021 01:36 10,6 C 10,0 C 9,5 C 90 % 1026,6 hPa 0,0 l/m 0 min 0 min 0 W/m 6,4 km/h (2 Bft) 100,00 %
14.10.2021 01:38 10,6 C 10,0 C 9,5 C 90 % 1026,7 hPa 0,0 l/m 0 min 0 min 0 W/m 3,2 km/h (1 Bft) 97,87 %
14.10.2021 01:40 10,6 C 10,0 C 9,5 C 90 % 1026,6 hPa 0,0 l/m 0 min 0 min 0 W/m 6,4 km/h (2 Bft) 100,00 %
14.10.2021 01:42 10,6 C 10,0 C 9,5 C 90 % 1026,7 hPa 0,0 l/m 0 min 0 min 0 W/m 6,4 km/h (2 Bft) 100,00 %
14.10.2021 01:44 10,6 C 10,0 C 9,5 C 90 % 1026,7 hPa 0,0 l/m 0 min 0 min 0 W/m 6,4 km/h (2 Bft) 100,00 %
14.10.2021 01:46 10,6 C 10,0 C 9,5 C 90 % 1026,6 hPa 0,0 l/m 0 min 0 min 0 W/m 6,4 km/h (2 Bft) 100,00 %
14.10.2021 01:48 10,6 C 10,0 C 9,5 C 90 % 1026,6 hPa 0,0 l/m 0 min 0 min 0 W/m 3,2 km/h (1 Bft) 100,00 %
14.10.2021 01:50 10,6 C 10,0 C 9,5 C 90 % 1026,5 hPa 0,0 l/m 0 min 0 min 0 W/m 3,2 km/h (1 Bft) 97,87 %
14.10.2021 01:52 10,6 C 10,0 C 9,5 C 90 % 1026,6 hPa 0,0 l/m 0 min 0 min 0 W/m 3,2 km/h (1 Bft) 100,00 %
14.10.2021 01:54 10,6 C 10,0 C 9,5 C 90 % 1026,5 hPa 0,0 l/m 0 min 0 min 0 W/m 3,2 km/h (1 Bft) 100,00 %
14.10.2021 01:56 10,6 C 10,0 C 9,5 C 89 % 1026,5 hPa 0,0 l/m 0 min 0 min 0 W/m 9,7 km/h (2 Bft) 100,00 %
14.10.2021 01:58 10,6 C 10,0 C 9,5 C 89 % 1026,6 hPa 0,0 l/m 0 min 0 min 0 W/m 3,2 km/h (1 Bft) 95,74 %
14.10.2021 02:00 10,6 C 10,0 C 9,5 C 89 % 1026,5 hPa 0,0 l/m 0 min 0 min 0 W/m 0,0 km/h (0 Bft) 97,87 %
14.10.2021 02:02 10,6 C 10,0 C 9,5 C 89 % 1026,5 hPa 0,0 l/m 0 min 0 min 0 W/m 3,2 km/h (1 Bft) 97,87 %
14.10.2021 02:04 10,6 C 10,0 C 9,5 C 89 % 1026,5 hPa 0,0 l/m 0 min 0 min 0 W/m 9,7 km/h (2 Bft) 97,87 %
14.10.2021 02:06 10,6 C 10,0 C 9,5 C 89 % 1026,5 hPa 0,0 l/m 0 min 0 min 0 W/m 3,2 km/h (1 Bft) 97,83 %
14.10.2021 02:08 10,6 C 10,0 C 9,5 C 89 % 1026,5 hPa 0,0 l/m 0 min 0 min 0 W/m 6,4 km/h (2 Bft) 97,87 %
14.10.2021 02:10 10,6 C 10,0 C 9,5 C 89 % 1026,5 hPa 0,0 l/m 0 min 0 min 0 W/m 6,4 km/h (2 Bft) 97,87 %
14.10.2021 02:12 10,6 C 10,0 C 9,5 C 89 % 1026,5 hPa 0,0 l/m 0 min 0 min 0 W/m 3,2 km/h (1 Bft) 97,87 %
14.10.2021 02:14 10,6 C 10,0 C 9,5 C 89 % 1026,5 hPa 0,0 l/m 0 min 0 min 0 W/m 3,2 km/h (1 Bft) 97,87 %
14.10.2021 02:16 10,6 C 10,0 C 9,5 C 89 % 1026,5 hPa 0,0 l/m 0 min 0 min 0 W/m 3,2 km/h (1 Bft) 95,74 %
14.10.2021 02:18 10,6 C 10,0 C 9,5 C 89 % 1026,5 hPa 0,0 l/m 0 min 0 min 0 W/m 6,4 km/h (2 Bft) 97,83 %
14.10.2021 02:20 10,6 C 10,0 C 9,5 C 89 % 1026,5 hPa 0,0 l/m 0 min 0 min 0 W/m 6,4 km/h (2 Bft) 95,74 %
14.10.2021 02:22 10,6 C 10,0 C 9,5 C 89 % 1026,5 hPa 0,0 l/m 0 min 0 min 0 W/m 9,7 km/h (2 Bft) 97,87 %
14.10.2021 02:24 10,6 C 10,0 C 9,5 C 89 % 1026,5 hPa 0,0 l/m 0 min 0 min 0 W/m 6,4 km/h (2 Bft) 97,87 %
14.10.2021 02:26 10,6 C 10,0 C 9,5 C 89 % 1026,5 hPa 0,0 l/m 0 min 0 min 0 W/m 6,4 km/h (2 Bft) 97,87 %
14.10.2021 02:28 10,6 C 10,0 C 9,5 C 89 % 1026,5 hPa 0,0 l/m 0 min 0 min 0 W/m 16,1 km/h (3 Bft) 97,87 %
14.10.2021 02:30 10,6 C 10,0 C 9,5 C 89 % 1026,5 hPa 0,0 l/m 0 min 0 min 0 W/m 6,4 km/h (2 Bft) 97,83 %
14.10.2021 02:32 10,6 C 10,0 C 9,5 C 89 % 1026,4 hPa 0,0 l/m 0 min 0 min 0 W/m 6,4 km/h (2 Bft) 97,87 %
14.10.2021 02:34 10,6 C 10,0 C 9,5 C 89 % 1026,5 hPa 0,0 l/m 0 min 0 min 0 W/m 6,4 km/h (2 Bft) 100,00 %
14.10.2021 02:36 10,6 C 10,0 C 9,5 C 89 % 1026,5 hPa 0,0 l/m 0 min 0 min 0 W/m 12,9 km/h (3 Bft) 100,00 %
14.10.2021 02:38 10,6 C 10,0 C 9,5 C 89 % 1026,5 hPa 0,0 l/m 0 min 0 min 0 W/m 3,2 km/h (1 Bft) 100,00 %
14.10.2021 02:40 10,6 C 10,0 C 9,5 C 89 % 1026,4 hPa 0,0 l/m 0 min 0 min 0 W/m 6,4 km/h (2 Bft) 97,87 %
14.10.2021 02:42 10,6 C 10,0 C 9,5 C 88 % 1026,5 hPa 0,0 l/m 0 min 0 min 0 W/m 6,4 km/h (2 Bft) 100,00 %
14.10.2021 02:44 10,6 C 10,0 C 9,5 C 88 % 1026,5 hPa 0,0 l/m 0 min 0 min 0 W/m 3,2 km/h (1 Bft) 100,00 %
14.10.2021 02:46 10,6 C 10,0 C 9,5 C 88 % 1026,5 hPa 0,0 l/m 0 min 0 min 0 W/m 6,4 km/h (2 Bft) 100,00 %
14.10.2021 02:48 10,6 C 10,0 C 9,5 C 88 % 1026,5 hPa 0,0 l/m 0 min 0 min 0 W/m 3,2 km/h (1 Bft) 100,00 %
14.10.2021 02:50 10,6 C 10,0 C 9,5 C 88 % 1026,5 hPa 0,0 l/m 0 min 0 min 0 W/m 3,2 km/h (1 Bft) 100,00 %
14.10.2021 02:52 10,6 C 10,0 C 9,5 C 88 % 1026,5 hPa 0,0 l/m 0 min 0 min 0 W/m 12,9 km/h (3 Bft) 100,00 %
14.10.2021 02:54 10,6 C 10,0 C 9,5 C 88 % 1026,4 hPa 0,0 l/m 0 min 0 min 0 W/m 3,2 km/h (1 Bft) 100,00 %
14.10.2021 02:56 10,6 C 10,0 C 9,5 C 88 % 1026,3 hPa 0,0 l/m 0 min 0 min 0 W/m 6,4 km/h (2 Bft) 100,00 %
14.10.2021 02:58 10,6 C 10,0 C 9,5 C 88 % 1026,3 hPa 0,0 l/m 0 min 0 min 0 W/m 6,4 km/h (2 Bft) 100,00 %
14.10.2021 03:00 10,6 C 10,0 C 9,5 C 88 % 1026,3 hPa 0,0 l/m 0 min 0 min 0 W/m 3,2 km/h (1 Bft) 97,87 %
14.10.2021 03:02 10,6 C 10,0 C 9,5 C 88 % 1026,3 hPa 0,0 l/m 0 min 0 min 0 W/m 6,4 km/h (2 Bft) 100,00 %
14.10.2021 03:04 10,6 C 10,0 C 9,5 C 88 % 1026,3 hPa 0,0 l/m 0 min 0 min 0 W/m 6,4 km/h (2 Bft) 100,00 %
14.10.2021 03:06 10,7 C 10,0 C 9,5 C 87 % 1026,2 hPa 0,0 l/m 0 min 0 min 0 W/m 6,4 km/h (2 Bft) 97,83 %
14.10.2021 03:08 10,7 C 10,0 C 9,5 C 87 % 1026,2 hPa 0,0 l/m 0 min 0 min 0 W/m 6,4 km/h (2 Bft) 97,87 %
14.10.2021 03:10 10,7 C 10,0 C 9,5 C 87 % 1026,2 hPa 0,0 l/m 0 min 0 min 0 W/m 3,2 km/h (1 Bft) 100,00 %
14.10.2021 03:12 10,7 C 10,0 C 9,5 C 87 % 1026,2 hPa 0,0 l/m 0 min 0 min 0 W/m 3,2 km/h (1 Bft) 100,00 %
14.10.2021 03:14 10,7 C 10,0 C 9,5 C 87 % 1026,1 hPa 0,0 l/m 0 min 0 min 0 W/m 3,2 km/h (1 Bft) 97,87 %
14.10.2021 03:16 10,7 C 10,0 C 9,5 C 87 % 1026,1 hPa 0,0 l/m 0 min 0 min 0 W/m 3,2 km/h (1 Bft) 97,87 %
14.10.2021 03:18 10,7 C 10,0 C 9,5 C 87 % 1026,2 hPa 0,0 l/m 0 min 0 min 0 W/m 12,9 km/h (3 Bft) 95,65 %
14.10.2021 03:20 10,6 C 10,0 C 9,5 C 87 % 1026,2 hPa 0,0 l/m 0 min 0 min 0 W/m 6,4 km/h (2 Bft) 95,74 %
14.10.2021 03:22 10,6 C 10,0 C 9,5 C 87 % 1026,1 hPa 0,0 l/m 0 min 0 min 0 W/m 12,9 km/h (3 Bft) 95,74 %
14.10.2021 03:24 10,7 C 10,0 C 9,5 C 87 % 1026,2 hPa 0,0 l/m 0 min 0 min 0 W/m 6,4 km/h (2 Bft) 95,74 %
14.10.2021 03:26 10,6 C 10,0 C 9,5 C 87 % 1026,2 hPa 0,0 l/m 0 min 0 min 0 W/m 3,2 km/h (1 Bft) 95,74 %
14.10.2021 03:28 10,7 C 10,0 C 9,5 C 87 % 1026,1 hPa 0,0 l/m 0 min 0 min 0 W/m 6,4 km/h (2 Bft) 95,65 %
14.10.2021 03:30 10,7 C 10,0 C 9,5 C 87 % 1026,1 hPa 0,0 l/m 0 min 0 min 0 W/m 9,7 km/h (2 Bft) 93,62 %
14.10.2021 03:32 10,6 C 10,0 C 9,5 C 87 % 1026,1 hPa 0,0 l/m 0 min 0 min 0 W/m 9,7 km/h (2 Bft) 93,62 %
14.10.2021 03:34 10,6 C 10,0 C 9,5 C 87 % 1026,0 hPa 0,0 l/m 0 min 0 min 0 W/m 6,4 km/h (2 Bft) 95,74 %
14.10.2021 03:36 10,6 C 10,0 C 9,5 C 87 % 1026,0 hPa 0,0 l/m 0 min 0 min 0 W/m 12,9 km/h (3 Bft) 93,62 %
14.10.2021 03:38 10,6 C 10,0 C 9,5 C 87 % 1026,0 hPa 0,0 l/m 0 min 0 min 0 W/m 3,2 km/h (1 Bft) 93,62 %
14.10.2021 03:40 10,6 C 10,0 C 9,5 C 87 % 1026,0 hPa 0,0 l/m 0 min 0 min 0 W/m 3,2 km/h (1 Bft) 95,65 %
14.10.2021 03:42 10,6 C 10,0 C 9,5 C 87 % 1026,1 hPa 0,0 l/m 0 min 0 min 0 W/m 6,4 km/h (2 Bft) 95,74 %
14.10.2021 03:44 10,6 C 10,0 C 9,5 C 87 % 1026,0 hPa 0,0 l/m 0 min 0 min 0 W/m 12,9 km/h (3 Bft) 95,74 %
14.10.2021 03:46 10,6 C 10,0 C 9,5 C 87 % 1026,0 hPa 0,0 l/m 0 min 0 min 0 W/m 6,4 km/h (2 Bft) 95,74 %
14.10.2021 03:48 10,6 C 10,0 C 9,5 C 87 % 1026,0 hPa 0,0 l/m 0 min 0 min 0 W/m 6,4 km/h (2 Bft) 93,62 %
14.10.2021 03:50 10,6 C 10,0 C 9,5 C 87 % 1025,9 hPa 0,0 l/m 0 min 0 min 0 W/m 6,4 km/h (2 Bft) 95,74 %
14.10.2021 03:52 10,6 C 10,0 C 9,5 C 87 % 1026,0 hPa 0,0 l/m 0 min 0 min 0 W/m 6,4 km/h (2 Bft) 93,48 %
14.10.2021 03:54 10,6 C 10,0 C 9,5 C 87 % 1025,9 hPa 0,0 l/m 0 min 0 min 0 W/m 19,3 km/h (3 Bft) 95,74 %
14.10.2021 03:56 10,6 C 10,0 C 9,5 C 87 % 1026,0 hPa 0,0 l/m 0 min 0 min 0 W/m 16,1 km/h (3 Bft) 95,74 %
14.10.2021 03:58 10,6 C 10,0 C 9,5 C 87 % 1025,9 hPa 0,0 l/m 0 min 0 min 0 W/m 6,4 km/h (2 Bft) 95,74 %
14.10.2021 04:00 10,6 C 10,0 C 9,5 C 87 % 1026,0 hPa 0,0 l/m 0 min 0 min 0 W/m 6,4 km/h (2 Bft) 95,74 %
14.10.2021 04:02 10,6 C 10,0 C 9,5 C 88 % 1026,0 hPa 0,0 l/m 0 min 0 min 0 W/m 6,4 km/h (2 Bft) 94,12 %
14.10.2021 04:07 10,6 C 10,0 C 9,5 C 88 % 1026,1 hPa 0,0 l/m 0 min 0 min 0 W/m 12,9 km/h (3 Bft) 100,00 %
14.10.2021 04:08 10,6 C 10,0 C 9,5 C 88 % 1026,1 hPa 0,0 l/m 0 min 0 min 0 W/m 6,4 km/h (2 Bft) 95,65 %
14.10.2021 04:13 10,5 C 9,4 C 8,4 C 89 % 1025,9 hPa 0,0 l/m 0 min 5 min 0 W/m 12,9 km/h (3 Bft) 100,00 %
14.10.2021 04:14 10,5 C 9,4 C 8,4 C 89 % 1025,9 hPa 0,0 l/m 0 min 1 min 0 W/m 6,4 km/h (2 Bft) 91,67 %
14.10.2021 04:16 10,4 C 9,4 C 8,4 C 89 % 1026,0 hPa 0,0 l/m 0 min 2 min 0 W/m 3,2 km/h (1 Bft) 97,83 %
14.10.2021 04:18 10,4 C 9,4 C 8,4 C 90 % 1025,9 hPa 0,0 l/m 0 min 0 min 0 W/m 12,9 km/h (3 Bft) 97,87 %
14.10.2021 04:20 10,3 C 9,4 C 8,4 C 90 % 1025,9 hPa 0,0 l/m 0 min 0 min 0 W/m 19,3 km/h (3 Bft) 97,87 %
14.10.2021 04:22 10,3 C 9,4 C 8,4 C 90 % 1025,9 hPa 0,0 l/m 0 min 0 min 0 W/m 6,4 km/h (2 Bft) 97,87 %
14.10.2021 04:24 10,3 C 9,4 C 8,4 C 90 % 1025,9 hPa 0,0 l/m 0 min 0 min 0 W/m 3,2 km/h (1 Bft) 97,87 %
14.10.2021 04:26 10,2 C 9,4 C 8,4 C 91 % 1025,9 hPa 0,0 l/m 0 min 0 min 0 W/m 6,4 km/h (2 Bft) 97,87 %
14.10.2021 04:28 10,2 C 8,9 C 8,4 C 91 % 1025,9 hPa 0,0 l/m 0 min 0 min 0 W/m 3,2 km/h (1 Bft) 100,00 %
14.10.2021 04:30 10,1 C 8,9 C 8,4 C 91 % 1025,8 hPa 0,0 l/m 0 min 0 min 0 W/m 12,9 km/h (3 Bft) 100,00 %
14.10.2021 04:32 10,1 C 8,9 C 8,4 C 91 % 1025,9 hPa 0,0 l/m 0 min 0 min 0 W/m 9,7 km/h (2 Bft) 100,00 %
14.10.2021 04:34 10,1 C 8,9 C 8,4 C 92 % 1025,8 hPa 0,0 l/m 0 min 0 min 0 W/m 3,2 km/h (1 Bft) 100,00 %
14.10.2021 04:36 10,0 C 8,9 C 8,4 C 92 % 1025,8 hPa 0,0 l/m 0 min 0 min 0 W/m 6,4 km/h (2 Bft) 100,00 %
14.10.2021 04:38 10,0 C 8,9 C 8,4 C 92 % 1025,8 hPa 0,0 l/m 0 min 0 min 0 W/m 6,4 km/h (2 Bft) 100,00 %
14.10.2021 04:40 10,0 C 8,9 C 8,4 C 92 % 1025,8 hPa 0,0 l/m 0 min 0 min 0 W/m 6,4 km/h (2 Bft) 100,00 %
14.10.2021 04:42 10,0 C 8,9 C 8,4 C 92 % 1025,8 hPa 0,0 l/m 0 min 0 min 0 W/m 3,2 km/h (1 Bft) 100,00 %
14.10.2021 04:44 10,0 C 8,9 C 8,4 C 92 % 1025,7 hPa 0,0 l/m 0 min 0 min 0 W/m 12,9 km/h (3 Bft) 100,00 %
14.10.2021 04:46 9,9 C 8,9 C 8,4 C 92 % 1025,7 hPa 0,0 l/m 0 min 0 min 0 W/m 6,4 km/h (2 Bft) 97,87 %
14.10.2021 04:48 9,9 C 8,9 C 8,4 C 93 % 1025,7 hPa 0,0 l/m 0 min 0 min 0 W/m 16,1 km/h (3 Bft) 100,00 %
14.10.2021 04:50 9,9 C 8,9 C 8,4 C 93 % 1025,8 hPa 0,0 l/m 0 min 0 min 0 W/m 12,9 km/h (3 Bft) 100,00 %
14.10.2021 04:52 9,9 C 8,9 C 8,4 C 93 % 1025,8 hPa 0,0 l/m 0 min 0 min 0 W/m 6,4 km/h (2 Bft) 100,00 %
14.10.2021 04:54 9,8 C 8,9 C 8,4 C 93 % 1025,8 hPa 0,0 l/m 0 min 0 min 0 W/m 3,2 km/h (1 Bft) 100,00 %
14.10.2021 04:56 9,8 C 8,9 C 8,4 C 93 % 1025,8 hPa 0,0 l/m 0 min 0 min 0 W/m 6,4 km/h (2 Bft) 97,87 %
14.10.2021 04:58 9,8 C 8,9 C 8,4 C 93 % 1025,8 hPa 0,0 l/m 0 min 0 min 0 W/m 6,4 km/h (2 Bft) 100,00 %
14.10.2021 05:00 9,8 C 8,9 C 8,4 C 93 % 1025,8 hPa 0,0 l/m 0 min 0 min 0 W/m 6,4 km/h (2 Bft) 100,00 %
14.10.2021 05:02 9,8 C 8,9 C 8,4 C 93 % 1025,7 hPa 0,0 l/m 0 min 0 min 0 W/m 9,7 km/h (2 Bft) 97,83 %
14.10.2021 05:04 9,7 C 8,9 C 8,4 C 93 % 1025,7 hPa 0,0 l/m 0 min 0 min 0 W/m 19,3 km/h (3 Bft) 100,00 %
14.10.2021 05:06 9,7 C 8,9 C 8,4 C 94 % 1025,7 hPa 0,0 l/m 0 min 0 min 0 W/m 16,1 km/h (3 Bft) 97,87 %
14.10.2021 05:08 9,6 C 8,9 C 8,4 C 94 % 1025,7 hPa 0,0 l/m 0 min 0 min 0 W/m 9,7 km/h (2 Bft) 100,00 %
14.10.2021 05:10 9,6 C 8,9 C 8,4 C 94 % 1025,8 hPa 0,2 l/m 0 min 0 min 0 W/m 12,9 km/h (3 Bft) 100,00 %
14.10.2021 05:12 9,6 C 8,9 C 8,4 C 94 % 1025,8 hPa 0,0 l/m 0 min 0 min 0 W/m 12,9 km/h (3 Bft) 100,00 %
14.10.2021 05:14 9,6 C 8,9 C 8,4 C 94 % 1025,9 hPa 0,0 l/m 0 min 0 min 0 W/m 6,4 km/h (2 Bft) 100,00 %
14.10.2021 05:16 9,6 C 8,9 C 8,4 C 94 % 1025,9 hPa 0,0 l/m 0 min 0 min 0 W/m 6,4 km/h (2 Bft) 100,00 %
14.10.2021 05:18 9,6 C 8,9 C 8,4 C 94 % 1025,9 hPa 0,0 l/m 0 min 0 min 0 W/m 6,4 km/h (2 Bft) 100,00 %
14.10.2021 05:20 9,6 C 8,9 C 8,4 C 94 % 1025,9 hPa 0,0 l/m 0 min 0 min 0 W/m 6,4 km/h (2 Bft) 97,87 %
14.10.2021 05:22 9,6 C 8,9 C 8,4 C 94 % 1025,9 hPa 0,0 l/m 0 min 0 min 0 W/m 6,4 km/h (2 Bft) 100,00 %
14.10.2021 05:24 9,6 C 8,9 C 8,4 C 94 % 1025,9 hPa 0,0 l/m 0 min 0 min 0 W/m 12,9 km/h (3 Bft) 100,00 %
14.10.2021 05:26 9,6 C 8,9 C 8,4 C 94 % 1025,9 hPa 0,0 l/m 0 min 0 min 0 W/m 6,4 km/h (2 Bft) 100,00 %
14.10.2021 05:28 9,6 C 8,9 C 8,4 C 94 % 1025,9 hPa 0,0 l/m 0 min 0 min 0 W/m 6,4 km/h (2 Bft) 100,00 %
14.10.2021 05:30 9,6 C 8,9 C 8,4 C 94 % 1025,9 hPa 0,0 l/m 0 min 0 min 0 W/m 6,4 km/h (2 Bft) 100,00 %
14.10.2021 05:32 9,6 C 8,9 C 8,4 C 94 % 1025,9 hPa 0,0 l/m 0 min 0 min 0 W/m 6,4 km/h (2 Bft) 100,00 %
14.10.2021 05:34 9,6 C 8,9 C 8,4 C 94 % 1025,9 hPa 0,0 l/m 0 min 0 min 0 W/m 12,9 km/h (3 Bft) 100,00 %
14.10.2021 05:36 9,6 C 8,9 C 8,4 C 94 % 1025,9 hPa 0,0 l/m 0 min 0 min 0 W/m 12,9 km/h (3 Bft) 97,87 %
14.10.2021 05:38 9,6 C 9,4 C 8,4 C 94 % 1025,9 hPa 0,0 l/m 0 min 0 min 0 W/m 12,9 km/h (3 Bft) 100,00 %
14.10.2021 05:40 9,6 C 9,4 C 8,4 C 95 % 1025,8 hPa 0,0 l/m 0 min 0 min 0 W/m 6,4 km/h (2 Bft) 97,87 %
14.10.2021 05:42 9,6 C 9,4 C 8,4 C 95 % 1025,9 hPa 0,0 l/m 0 min 0 min 0 W/m 3,2 km/h (1 Bft) 97,87 %
14.10.2021 05:44 9,6 C 9,4 C 8,4 C 95 % 1025,9 hPa 0,0 l/m 0 min 0 min 0 W/m 6,4 km/h (2 Bft) 97,87 %
14.10.2021 05:46 9,6 C 9,4 C 8,4 C 95 % 1025,9 hPa 0,0 l/m 0 min 0 min 0 W/m 3,2 km/h (1 Bft) 97,87 %
14.10.2021 05:48 9,6 C 9,4 C 8,4 C 95 % 1025,8 hPa 0,0 l/m 0 min 0 min 0 W/m 9,7 km/h (2 Bft) 97,87 %
14.10.2021 05:50 9,6 C 9,4 C 8,4 C 95 % 1025,8 hPa 0,0 l/m 0 min 0 min 0 W/m 9,7 km/h (2 Bft) 95,65 %
14.10.2021 05:52 9,7 C 9,4 C 8,4 C 95 % 1025,8 hPa 0,0 l/m 0 min 0 min 0 W/m 6,4 km/h (2 Bft) 100,00 %
14.10.2021 05:54 9,6 C 9,4 C 8,4 C 95 % 1025,8 hPa 0,0 l/m 0 min 0 min 0 W/m 6,4 km/h (2 Bft) 93,62 %
14.10.2021 05:56 9,7 C 9,4 C 8,4 C 95 % 1025,8 hPa 0,0 l/m 0 min 0 min 0 W/m 3,2 km/h (1 Bft) 97,87 %
14.10.2021 05:58 9,7 C 9,4 C 8,4 C 95 % 1025,8 hPa 0,0 l/m 0 min 0 min 0 W/m 6,4 km/h (2 Bft) 97,87 %
14.10.2021 06:00 9,7 C 9,4 C 8,4 C 95 % 1025,8 hPa 0,0 l/m 0 min 0 min 0 W/m 6,4 km/h (2 Bft) 95,74 %
14.10.2021 06:02 9,7 C 9,4 C 8,4 C 95 % 1025,8 hPa 0,0 l/m 0 min 0 min 0 W/m 9,7 km/h (2 Bft) 91,30 %
14.10.2021 06:04 9,7 C 9,4 C 8,4 C 95 % 1025,7 hPa 0,0 l/m 0 min 0 min 0 W/m 12,9 km/h (3 Bft) 95,74 %
14.10.2021 06:08 9,7 C 9,4 C 8,4 C 95 % 1025,7 hPa 0,0 l/m 0 min 0 min 0 W/m 6,4 km/h (2 Bft) 95,12 %
14.10.2021 06:10 9,7 C 9,4 C 8,4 C 95 % 1025,7 hPa 0,0 l/m 0 min 0 min 0 W/m 3,2 km/h (1 Bft) 95,74 %
14.10.2021 06:12 9,7 C 9,4 C 8,4 C 95 % 1025,6 hPa 0,0 l/m 0 min 0 min 0 W/m 16,1 km/h (3 Bft) 95,74 %
14.10.2021 06:14 9,6 C 9,4 C 8,4 C 95 % 1025,6 hPa 0,0 l/m 0 min 0 min 0 W/m 9,7 km/h (2 Bft) 97,87 %
14.10.2021 06:16 9,6 C 9,4 C 8,4 C 95 % 1025,7 hPa 0,0 l/m 0 min 0 min 0 W/m 12,9 km/h (3 Bft) 95,65 %
14.10.2021 06:18 9,6 C 9,4 C 8,4 C 95 % 1025,7 hPa 0,0 l/m 0 min 0 min 0 W/m 12,9 km/h (3 Bft) 93,62 %
14.10.2021 06:20 9,6 C 9,4 C 8,4 C 95 % 1025,7 hPa 0,0 l/m 0 min 0 min 0 W/m 12,9 km/h (3 Bft) 95,74 %
14.10.2021 06:22 9,6 C 9,4 C 8,4 C 95 % 1025,6 hPa 0,0 l/m 0 min 0 min 0 W/m 6,4 km/h (2 Bft) 95,74 %
14.10.2021 06:24 9,6 C 9,4 C 8,9 C 95 % 1025,7 hPa 0,0 l/m 0 min 0 min 0 W/m 9,7 km/h (2 Bft) 95,74 %
14.10.2021 06:26 9,6 C 9,4 C 8,9 C 95 % 1025,7 hPa 0,0 l/m 0 min 0 min 0 W/m 12,9 km/h (3 Bft) 95,74 %
14.10.2021 06:28 9,6 C 9,4 C 8,9 C 95 % 1025,7 hPa 0,0 l/m 0 min 0 min 0 W/m 16,1 km/h (3 Bft) 95,65 %
14.10.2021 06:30 9,7 C 9,4 C 8,9 C 95 % 1025,7 hPa 0,0 l/m 0 min 0 min 0 W/m 6,4 km/h (2 Bft) 93,62 %
14.10.2021 06:32 9,7 C 9,4 C 8,9 C 95 % 1025,7 hPa 0,0 l/m 0 min 0 min 0 W/m 6,4 km/h (2 Bft) 93,62 %
14.10.2021 06:34 9,7 C 9,4 C 8,9 C 95 % 1025,7 hPa 0,0 l/m 0 min 0 min 0 W/m 3,2 km/h (1 Bft) 93,62 %
14.10.2021 06:36 9,7 C 9,4 C 8,9 C 95 % 1025,7 hPa 0,0 l/m 0 min 0 min 0 W/m 9,7 km/h (2 Bft) 96,55 %
14.10.2021 06:38 9,7 C 9,4 C 8,9 C 95 % 1025,7 hPa 0,0 l/m 0 min 0 min 0 W/m 6,4 km/h (2 Bft) 94,44 %
14.10.2021 06:40 9,7 C 9,4 C 8,9 C 95 % 1025,7 hPa 0,0 l/m 0 min 0 min 0 W/m 6,4 km/h (2 Bft) 95,65 %
14.10.2021 06:42 9,7 C 9,4 C 8,9 C 95 % 1025,7 hPa 0,0 l/m 0 min 0 min 0 W/m 6,4 km/h (2 Bft) 95,74 %
14.10.2021 06:44 9,7 C 9,4 C 8,9 C 95 % 1025,6 hPa 0,0 l/m 0 min 0 min 0 W/m 16,1 km/h (3 Bft) 95,74 %
14.10.2021 06:46 9,7 C 9,4 C 8,9 C 95 % 1025,6 hPa 0,0 l/m 0 min 0 min 0 W/m 6,4 km/h (2 Bft) 95,74 %
14.10.2021 06:48 9,7 C 9,4 C 8,9 C 95 % 1025,6 hPa 0,0 l/m 0 min 0 min 0 W/m 6,4 km/h (2 Bft) 97,87 %
14.10.2021 06:50 9,7 C 9,4 C 8,9 C 95 % 1025,6 hPa 0,0 l/m 0 min 0 min 0 W/m 6,4 km/h (2 Bft) 97,87 %
14.10.2021 06:52 9,8 C 9,4 C 8,9 C 95 % 1025,6 hPa 0,0 l/m 0 min 0 min 0 W/m 9,7 km/h (2 Bft) 97,83 %
14.10.2021 06:54 9,8 C 9,4 C 8,9 C 94 % 1025,6 hPa 0,0 l/m 0 min 0 min 0 W/m 9,7 km/h (2 Bft) 97,87 %
14.10.2021 06:56 9,8 C 9,4 C 8,9 C 94 % 1025,6 hPa 0,0 l/m 0 min 0 min 0 W/m 12,9 km/h (3 Bft) 95,74 %
14.10.2021 06:58 9,8 C 9,4 C 8,9 C 94 % 1025,6 hPa 0,0 l/m 0 min 0 min 0 W/m 6,4 km/h (2 Bft) 97,87 %
14.10.2021 07:00 9,8 C 9,4 C 8,9 C 94 % 1025,6 hPa 0,0 l/m 0 min 0 min 0 W/m 9,7 km/h (2 Bft) 97,87 %
14.10.2021 07:02 9,8 C 9,4 C 8,9 C 94 % 1025,6 hPa 0,0 l/m 0 min 0 min 0 W/m 12,9 km/h (3 Bft) 93,62 %
14.10.2021 07:04 9,8 C 9,4 C 8,9 C 94 % 1025,6 hPa 0,0 l/m 0 min 0 min 0 W/m 12,9 km/h (3 Bft) 95,65 %
14.10.2021 07:06 9,8 C 9,4 C 8,9 C 94 % 1025,6 hPa 0,0 l/m 0 min 0 min 0 W/m 9,7 km/h (2 Bft) 97,87 %
14.10.2021 07:08 9,8 C 9,4 C 8,9 C 95 % 1025,6 hPa 0,0 l/m 0 min 0 min 0 W/m 6,4 km/h (2 Bft) 97,87 %
14.10.2021 07:10 9,8 C 9,4 C 8,9 C 95 % 1025,7 hPa 0,0 l/m 0 min 0 min 0 W/m 12,9 km/h (3 Bft) 97,87 %
14.10.2021 07:12 9,8 C 9,4 C 8,9 C 95 % 1025,7 hPa 0,0 l/m 0 min 0 min 0 W/m 12,9 km/h (3 Bft) 97,87 %
14.10.2021 07:14 9,8 C 9,4 C 8,9 C 95 % 1025,6 hPa 0,0 l/m 0 min 0 min 0 W/m 3,2 km/h (1 Bft) 97,87 %
14.10.2021 07:16 9,8 C 9,4 C 8,9 C 95 % 1025,6 hPa 0,0 l/m 0 min 0 min 0 W/m 6,4 km/h (2 Bft) 100,00 %
14.10.2021 07:18 9,9 C 9,4 C 8,9 C 95 % 1025,6 hPa 0,0 l/m 0 min 0 min 0 W/m 9,7 km/h (2 Bft) 97,87 %
14.10.2021 07:20 9,9 C 9,4 C 8,9 C 94 % 1025,6 hPa 0,0 l/m 0 min 0 min 0 W/m 9,7 km/h (2 Bft) 100,00 %
14.10.2021 07:22 9,9 C 9,4 C 8,9 C 94 % 1025,6 hPa 0,0 l/m 0 min 0 min 0 W/m 6,4 km/h (2 Bft) 97,87 %
14.10.2021 07:24 9,9 C 9,4 C 8,9 C 94 % 1025,5 hPa 0,0 l/m 0 min 0 min 0 W/m 6,4 km/h (2 Bft) 100,00 %
14.10.2021 07:26 9,9 C 9,4 C 8,9 C 94 % 1025,5 hPa 0,0 l/m 0 min 0 min 0 W/m 9,7 km/h (2 Bft) 97,83 %
14.10.2021 07:28 9,9 C 9,4 C 8,9 C 94 % 1025,5 hPa 0,0 l/m 0 min 0 min 0 W/m 6,4 km/h (2 Bft) 97,87 %
14.10.2021 07:30 9,9 C 9,4 C 8,9 C 94 % 1025,4 hPa 0,0 l/m 0 min 2 min 0 W/m 6,4 km/h (2 Bft) 100,00 %
14.10.2021 07:32 9,9 C 9,4 C 8,9 C 94 % 1025,5 hPa 0,0 l/m 0 min 0 min 0 W/m 9,7 km/h (2 Bft) 97,87 %
14.10.2021 07:34 9,9 C 9,4 C 8,9 C 94 % 1025,5 hPa 0,0 l/m 0 min 0 min 0 W/m 12,9 km/h (3 Bft) 100,00 %
14.10.2021 07:36 9,9 C 9,4 C 8,9 C 94 % 1025,5 hPa 0,0 l/m 0 min 0 min 0 W/m 6,4 km/h (2 Bft) 100,00 %
14.10.2021 07:38 9,9 C 9,4 C 8,9 C 94 % 1025,5 hPa 0,0 l/m 0 min 0 min 0 W/m 6,4 km/h (2 Bft) 95,74 %
14.10.2021 07:40 9,9 C 9,4 C 8,9 C 94 % 1025,5 hPa 0,0 l/m 0 min 0 min 0 W/m 6,4 km/h (2 Bft) 97,83 %
14.10.2021 07:42 9,9 C 9,4 C 8,9 C 95 % 1025,5 hPa 0,0 l/m 0 min 0 min 0 W/m 6,4 km/h (2 Bft) 97,87 %
14.10.2021 07:44 9,9 C 9,4 C 8,9 C 95 % 1025,5 hPa 0,0 l/m 0 min 0 min 0 W/m 3,2 km/h (1 Bft) 97,87 %
14.10.2021 07:46 9,9 C 9,4 C 8,4 C 95 % 1025,5 hPa 0,0 l/m 0 min 0 min 0 W/m 12,9 km/h (3 Bft) 97,87 %
14.10.2021 07:48 9,9 C 9,4 C 8,4 C 95 % 1025,5 hPa 0,0 l/m 0 min 0 min 0 W/m 12,9 km/h (3 Bft) 97,87 %
14.10.2021 07:50 9,9 C 9,4 C 8,4 C 95 % 1025,5 hPa 0,0 l/m 0 min 0 min 0 W/m 16,1 km/h (3 Bft) 97,87 %
14.10.2021 07:52 9,9 C 9,4 C 8,9 C 95 % 1025,5 hPa 0,0 l/m 0 min 0 min 0 W/m 16,1 km/h (3 Bft) 97,83 %
14.10.2021 07:54 9,9 C 9,4 C 8,9 C 95 % 1025,5 hPa 0,0 l/m 0 min 0 min 0 W/m 9,7 km/h (2 Bft) 97,87 %
14.10.2021 07:56 9,9 C 9,4 C 8,9 C 95 % 1025,6 hPa 0,0 l/m 0 min 0 min 0 W/m 6,4 km/h (2 Bft) 97,87 %
14.10.2021 07:58 9,9 C 9,4 C 8,9 C 95 % 1025,6 hPa 0,0 l/m 0 min 0 min 0 W/m 3,2 km/h (1 Bft) 97,87 %
14.10.2021 08:00 9,9 C 9,4 C 8,9 C 95 % 1025,5 hPa 0,0 l/m 0 min 0 min 0 W/m 6,4 km/h (2 Bft) 97,87 %
14.10.2021 08:02 9,9 C 9,4 C 8,9 C 95 % 1025,6 hPa 0,0 l/m 0 min 0 min 0 W/m 6,4 km/h (2 Bft) 95,65 %
14.10.2021 08:04 9,9 C 9,4 C 8,9 C 95 % 1025,5 hPa 0,0 l/m 0 min 0 min 0 W/m 12,9 km/h (3 Bft) 97,87 %
14.10.2021 08:06 9,9 C 9,4 C 8,9 C 95 % 1025,5 hPa 0,0 l/m 0 min 0 min 0 W/m 6,4 km/h (2 Bft) 96,30 %
14.10.2021 08:08 9,9 C 9,4 C 8,9 C 95 % 1025,5 hPa 0,0 l/m 0 min 2 min 0 W/m 9,7 km/h (2 Bft) 97,87 %
14.10.2021 08:10 9,9 C 9,4 C 8,9 C 95 % 1025,5 hPa 0,0 l/m 0 min 2 min 0 W/m 16,1 km/h (3 Bft) 97,87 %
14.10.2021 08:12 9,9 C 9,4 C 8,9 C 95 % 1025,5 hPa 0,0 l/m 0 min 2 min 0 W/m 6,4 km/h (2 Bft) 97,87 %
14.10.2021 08:14 9,9 C 9,4 C 8,9 C 95 % 1025,5 hPa 0,2 l/m 0 min 0 min 0 W/m 12,9 km/h (3 Bft) 100,00 %
14.10.2021 08:16 9,9 C 9,4 C 8,9 C 95 % 1025,5 hPa 0,0 l/m 0 min 0 min 0 W/m 16,1 km/h (3 Bft) 100,00 %
14.10.2021 08:18 9,9 C 9,4 C 8,9 C 95 % 1025,5 hPa 0,0 l/m 0 min 0 min 0 W/m 3,2 km/h (1 Bft) 100,00 %
14.10.2021 08:20 9,9 C 9,4 C 8,9 C 95 % 1025,5 hPa 0,0 l/m 0 min 0 min 0 W/m 9,7 km/h (2 Bft) 100,00 %
14.10.2021 08:22 9,9 C 9,4 C 8,9 C 95 % 1025,6 hPa 0,0 l/m 0 min 0 min 0 W/m 6,4 km/h (2 Bft) 93,48 %
14.10.2021 08:24 9,9 C 9,4 C 8,9 C 95 % 1025,5 hPa 0,0 l/m 0 min 0 min 3 W/m 6,4 km/h (2 Bft) 100,00 %
14.10.2021 08:26 9,9 C 9,4 C 8,9 C 95 % 1025,4 hPa 0,0 l/m 0 min 0 min 6 W/m 6,4 km/h (2 Bft) 100,00 %
14.10.2021 08:28 9,9 C 9,4 C 8,9 C 95 % 1025,3 hPa 0,0 l/m 0 min 0 min 8 W/m 19,3 km/h (3 Bft) 100,00 %
14.10.2021 08:30 9,9 C 9,4 C 8,9 C 95 % 1025,4 hPa 0,0 l/m 0 min 0 min 8 W/m 22,5 km/h (4 Bft) 100,00 %
14.10.2021 08:32 9,9 C 9,4 C 8,9 C 95 % 1025,3 hPa 0,0 l/m 0 min 0 min 7 W/m 16,1 km/h (3 Bft) 97,87 %
14.10.2021 08:34 9,9 C 9,4 C 8,9 C 95 % 1025,4 hPa 0,0 l/m 0 min 0 min 7 W/m 12,9 km/h (3 Bft) 100,00 %
14.10.2021 08:36 9,9 C 9,4 C 8,9 C 95 % 1025,3 hPa 0,0 l/m 0 min 0 min 8 W/m 6,4 km/h (2 Bft) 100,00 %
14.10.2021 08:38 9,9 C 9,4 C 8,9 C 95 % 1025,3 hPa 0,0 l/m 0 min 0 min 11 W/m 12,9 km/h (3 Bft) 100,00 %
14.10.2021 08:40 9,9 C 9,4 C 8,9 C 95 % 1025,3 hPa 0,0 l/m 0 min 0 min 11 W/m 6,4 km/h (2 Bft) 97,83 %
14.10.2021 08:42 9,9 C 9,4 C 8,9 C 95 % 1025,3 hPa 0,0 l/m 0 min 0 min 12 W/m 9,7 km/h (2 Bft) 95,74 %
14.10.2021 08:44 9,9 C 9,4 C 8,9 C 95 % 1025,3 hPa 0,0 l/m 0 min 0 min 13 W/m 6,4 km/h (2 Bft) 97,87 %
14.10.2021 08:46 9,9 C 9,4 C 8,9 C 95 % 1025,3 hPa 0,0 l/m 0 min 0 min 13 W/m 9,7 km/h (2 Bft) 95,74 %
14.10.2021 08:48 9,9 C 9,4 C 8,9 C 95 % 1025,4 hPa 0,0 l/m 0 min 0 min 10 W/m 12,9 km/h (3 Bft) 97,87 %
14.10.2021 08:50 9,9 C 9,4 C 8,9 C 95 % 1025,4 hPa 0,0 l/m 0 min 0 min 8 W/m 3,2 km/h (1 Bft) 97,87 %
14.10.2021 08:52 9,9 C 9,4 C 8,9 C 95 % 1025,4 hPa 0,0 l/m 0 min 0 min 9 W/m 6,4 km/h (2 Bft) 95,65 %
14.10.2021 08:54 9,9 C 9,4 C 8,9 C 96 % 1025,4 hPa 0,0 l/m 0 min 0 min 12 W/m 9,7 km/h (2 Bft) 97,87 %
14.10.2021 08:56 9,9 C 9,4 C 8,9 C 96 % 1025,4 hPa 0,0 l/m 0 min 0 min 14 W/m 6,4 km/h (2 Bft) 97,87 %
14.10.2021 08:58 9,9 C 9,4 C 8,9 C 96 % 1025,4 hPa 0,0 l/m 0 min 0 min 14 W/m 9,7 km/h (2 Bft) 97,87 %
14.10.2021 09:00 9,9 C 9,4 C 8,9 C 96 % 1025,4 hPa 0,0 l/m 0 min 0 min 14 W/m 6,4 km/h (2 Bft) 97,87 %
14.10.2021 09:02 10,0 C 9,4 C 8,9 C 96 % 1025,4 hPa 0,0 l/m 0 min 0 min 11 W/m 6,4 km/h (2 Bft) 97,87 %
14.10.2021 09:04 10,0 C 9,4 C 8,9 C 96 % 1025,3 hPa 0,0 l/m 0 min 0 min 12 W/m 12,9 km/h (3 Bft) 97,83 %
14.10.2021 09:06 10,0 C 9,4 C 8,9 C 96 % 1025,4 hPa 0,0 l/m 0 min 0 min 13 W/m 16,1 km/h (3 Bft) 97,87 %
14.10.2021 09:08 10,0 C 9,4 C 8,9 C 96 % 1025,3 hPa 0,0 l/m 0 min 0 min 20 W/m 12,9 km/h (3 Bft) 95,74 %
14.10.2021 09:10 10,0 C 9,4 C 8,9 C 96 % 1025,3 hPa 0,0 l/m 0 min 0 min 24 W/m 16,1 km/h (3 Bft) 97,87 %
14.10.2021 09:12 10,0 C 9,4 C 8,9 C 96 % 1025,3 hPa 0,0 l/m 0 min 0 min 26 W/m 16,1 km/h (3 Bft) 93,62 %
14.10.2021 09:14 10,0 C 9,4 C 8,9 C 96 % 1025,3 hPa 0,0 l/m 0 min 0 min 24 W/m 3,2 km/h (1 Bft) 97,83 %
14.10.2021 09:16 10,0 C 9,4 C 8,9 C 96 % 1025,3 hPa 0,0 l/m 0 min 0 min 20 W/m 16,1 km/h (3 Bft) 97,87 %
14.10.2021 09:18 10,0 C 9,4 C 8,9 C 96 % 1025,3 hPa 0,0 l/m 0 min 0 min 18 W/m 6,4 km/h (2 Bft) 97,87 %
14.10.2021 09:20 10,0 C 9,4 C 8,9 C 96 % 1025,3 hPa 0,0 l/m 0 min 0 min 15 W/m 6,4 km/h (2 Bft) 93,62 %
14.10.2021 09:22 10,0 C 9,4 C 8,9 C 96 % 1025,3 hPa 0,0 l/m 0 min 0 min 19 W/m 6,4 km/h (2 Bft) 95,74 %
14.10.2021 09:24 10,0 C 9,4 C 8,9 C 96 % 1025,3 hPa 0,0 l/m 0 min 0 min 25 W/m 16,1 km/h (3 Bft) 95,74 %
14.10.2021 09:26 10,0 C 9,4 C 8,9 C 96 % 1025,4 hPa 0,0 l/m 0 min 0 min 25 W/m 12,9 km/h (3 Bft) 95,74 %
14.10.2021 09:28 10,1 C 9,4 C 8,9 C 96 % 1025,3 hPa 0,0 l/m 0 min 0 min 26 W/m 9,7 km/h (2 Bft) 93,48 %
14.10.2021 09:30 10,1 C 9,4 C 8,9 C 96 % 1025,4 hPa 0,0 l/m 0 min 0 min 24 W/m 3,2 km/h (1 Bft) 93,62 %
14.10.2021 09:32 10,1 C 10,0 C 8,9 C 96 % 1025,4 hPa 0,0 l/m 0 min 0 min 27 W/m 9,7 km/h (2 Bft) 95,74 %
14.10.2021 09:34 10,1 C 10,0 C 8,9 C 96 % 1025,4 hPa 0,0 l/m 0 min 0 min 24 W/m 16,1 km/h (3 Bft) 93,62 %
14.10.2021 09:36 10,1 C 9,4 C 8,9 C 96 % 1025,4 hPa 0,0 l/m 0 min 0 min 19 W/m 12,9 km/h (3 Bft) 93,62 %
14.10.2021 09:38 10,1 C 9,4 C 8,9 C 96 % 1025,5 hPa 0,0 l/m 0 min 0 min 16 W/m 6,4 km/h (2 Bft) 95,65 %
14.10.2021 09:40 10,1 C 9,4 C 8,9 C 96 % 1025,5 hPa 0,0 l/m 0 min 0 min 15 W/m 6,4 km/h (2 Bft) 95,74 %
14.10.2021 09:42 10,1 C 9,4 C 8,9 C 96 % 1025,5 hPa 0,0 l/m 0 min 0 min 17 W/m 6,4 km/h (2 Bft) 93,62 %
14.10.2021 09:44 10,1 C 9,4 C 8,9 C 96 % 1025,5 hPa 0,0 l/m 0 min 0 min 17 W/m 6,4 km/h (2 Bft) 95,74 %
14.10.2021 09:46 10,1 C 9,4 C 8,9 C 96 % 1025,5 hPa 0,0 l/m 0 min 0 min 19 W/m 6,4 km/h (2 Bft) 95,74 %
14.10.2021 09:48 10,1 C 9,4 C 8,9 C 96 % 1025,5 hPa 0,0 l/m 0 min 0 min 22 W/m 6,4 km/h (2 Bft) 95,74 %
14.10.2021 09:50 10,1 C 9,4 C 8,9 C 96 % 1025,5 hPa 0,0 l/m 0 min 0 min 25 W/m 6,4 km/h (2 Bft) 95,65 %
14.10.2021 09:52 10,1 C 9,4 C 8,9 C 96 % 1025,5 hPa 0,0 l/m 0 min 0 min 25 W/m 12,9 km/h (3 Bft) 95,74 %
14.10.2021 09:54 10,1 C 9,4 C 8,9 C 96 % 1025,5 hPa 0,0 l/m 0 min 0 min 24 W/m 9,7 km/h (2 Bft) 93,62 %
14.10.2021 09:56 10,1 C 9,4 C 8,9 C 96 % 1025,5 hPa 0,0 l/m 0 min 0 min 24 W/m 12,9 km/h (3 Bft) 95,74 %
14.10.2021 09:58 10,1 C 9,4 C 8,9 C 96 % 1025,5 hPa 0,0 l/m 0 min 0 min 24 W/m 9,7 km/h (2 Bft) 95,74 %
14.10.2021 10:00 10,1 C 9,4 C 8,9 C 96 % 1025,5 hPa 0,0 l/m 0 min 0 min 24 W/m 9,7 km/h (2 Bft) 93,62 %
14.10.2021 10:02 10,1 C 10,0 C 9,5 C 96 % 1025,6 hPa 0,0 l/m 0 min 0 min 25 W/m 6,4 km/h (2 Bft) 95,74 %
14.10.2021 10:04 10,1 C 10,0 C 9,5 C 96 % 1025,6 hPa 0,0 l/m 0 min 0 min 30 W/m 12,9 km/h (3 Bft) 95,74 %
14.10.2021 10:06 10,2 C 10,0 C 9,5 C 96 % 1025,6 hPa 0,0 l/m 0 min 0 min 33 W/m 6,4 km/h (2 Bft) 93,62 %
14.10.2021 10:08 10,2 C 10,0 C 9,5 C 96 % 1025,7 hPa 0,0 l/m 0 min 0 min 38 W/m 6,4 km/h (2 Bft) 98,04 %
14.10.2021 10:10 10,2 C 10,0 C 9,5 C 96 % 1025,6 hPa 0,0 l/m 0 min 0 min 50 W/m 12,9 km/h (3 Bft) 97,87 %
14.10.2021 10:12 10,3 C 10,0 C 9,5 C 96 % 1025,6 hPa 0,0 l/m 0 min 0 min 68 W/m 6,4 km/h (2 Bft) 100,00 %
14.10.2021 10:14 10,3 C 10,0 C 9,5 C 96 % 1025,6 hPa 0,0 l/m 0 min 0 min 82 W/m 3,2 km/h (1 Bft) 100,00 %
14.10.2021 10:16 10,3 C 10,0 C 9,5 C 96 % 1025,6 hPa 0,0 l/m 0 min 0 min 76 W/m 12,9 km/h (3 Bft) 100,00 %
14.10.2021 10:18 10,3 C 10,0 C 9,5 C 96 % 1025,5 hPa 0,0 l/m 0 min 0 min 71 W/m 6,4 km/h (2 Bft) 100,00 %
14.10.2021 10:20 10,4 C 10,0 C 9,5 C 96 % 1025,5 hPa 0,0 l/m 0 min 0 min 74 W/m 6,4 km/h (2 Bft) 97,87 %
14.10.2021 10:22 10,4 C 10,6 C 9,5 C 96 % 1025,6 hPa 0,0 l/m 0 min 0 min 83 W/m 6,4 km/h (2 Bft) 95,74 %
14.10.2021 10:24 10,4 C 10,6 C 9,5 C 96 % 1025,6 hPa 0,0 l/m 0 min 0 min 82 W/m 9,7 km/h (2 Bft) 100,00 %
14.10.2021 10:26 10,4 C 10,0 C 9,5 C 96 % 1025,6 hPa 0,0 l/m 0 min 0 min 58 W/m 16,1 km/h (3 Bft) 100,00 %
14.10.2021 10:28 10,4 C 10,0 C 9,5 C 96 % 1025,6 hPa 0,0 l/m 0 min 0 min 51 W/m 12,9 km/h (3 Bft) 100,00 %
14.10.2021 10:30 10,4 C 10,0 C 9,5 C 96 % 1025,6 hPa 0,0 l/m 0 min 0 min 55 W/m 12,9 km/h (3 Bft) 100,00 %
14.10.2021 10:32 10,4 C 10,0 C 9,5 C 96 % 1025,6 hPa 0,0 l/m 0 min 0 min 71 W/m 12,9 km/h (3 Bft) 100,00 %
14.10.2021 10:34 10,4 C 10,6 C 9,5 C 96 % 1025,6 hPa 0,0 l/m 0 min 0 min 70 W/m 6,4 km/h (2 Bft) 100,00 %
14.10.2021 10:36 10,5 C 10,6 C 9,5 C 96 % 1025,6 hPa 0,0 l/m 0 min 0 min 65 W/m 9,7 km/h (2 Bft) 100,00 %
14.10.2021 10:38 10,5 C 10,6 C 9,5 C 96 % 1025,5 hPa 0,0 l/m 0 min 0 min 66 W/m 6,4 km/h (2 Bft) 100,00 %
14.10.2021 10:40 10,5 C 10,6 C 9,5 C 96 % 1025,6 hPa 0,0 l/m 0 min 0 min 69 W/m 9,7 km/h (2 Bft) 100,00 %
14.10.2021 10:42 10,5 C 10,6 C 9,5 C 96 % 1025,6 hPa 0,0 l/m 0 min 0 min 79 W/m 9,7 km/h (2 Bft) 100,00 %
14.10.2021 10:44 10,5 C 10,6 C 9,5 C 96 % 1025,6 hPa 0,0 l/m 0 min 0 min 73 W/m 12,9 km/h (3 Bft) 100,00 %
14.10.2021 10:46 10,5 C 10,6 C 9,5 C 96 % 1025,5 hPa 0,0 l/m 0 min 0 min 69 W/m 12,9 km/h (3 Bft) 100,00 %
14.10.2021 10:48 10,5 C 10,6 C 9,5 C 96 % 1025,6 hPa 0,0 l/m 0 min 0 min 63 W/m 12,9 km/h (3 Bft) 100,00 %
14.10.2021 10:50 10,5 C 10,6 C 9,5 C 96 % 1025,6 hPa 0,0 l/m 0 min 0 min 71 W/m 6,4 km/h (2 Bft) 100,00 %
14.10.2021 10:52 10,5 C 10,6 C 9,5 C 96 % 1025,6 hPa 0,0 l/m 0 min 0 min 76 W/m 6,4 km/h (2 Bft) 100,00 %
14.10.2021 10:54 10,6 C 10,6 C 9,5 C 96 % 1025,6 hPa 0,0 l/m 0 min 0 min 77 W/m 3,2 km/h (1 Bft) 97,87 %
14.10.2021 10:56 10,6 C 10,6 C 10,0 C 96 % 1025,6 hPa 0,0 l/m 0 min 0 min 81 W/m 12,9 km/h (3 Bft) 100,00 %
14.10.2021 10:58 10,6 C 10,6 C 10,0 C 96 % 1025,6 hPa 0,0 l/m 0 min 0 min 88 W/m 12,9 km/h (3 Bft) 100,00 %
14.10.2021 11:00 10,6 C 10,6 C 10,0 C 96 % 1025,6 hPa 0,0 l/m 0 min 0 min 98 W/m 6,4 km/h (2 Bft) 100,00 %
14.10.2021 11:02 10,6 C 10,6 C 10,0 C 96 % 1025,6 hPa 0,0 l/m 0 min 0 min 103 W/m 12,9 km/h (3 Bft) 100,00 %
14.10.2021 11:04 10,6 C 10,6 C 10,0 C 96 % 1025,5 hPa 0,0 l/m 0 min 0 min 97 W/m 6,4 km/h (2 Bft) 100,00 %
14.10.2021 11:06 10,7 C 10,6 C 10,0 C 96 % 1025,6 hPa 0,0 l/m 0 min 0 min 94 W/m 6,4 km/h (2 Bft) 100,00 %
14.10.2021 11:08 10,7 C 10,6 C 10,0 C 96 % 1025,6 hPa 0,0 l/m 0 min 0 min 99 W/m 16,1 km/h (3 Bft) 98,00 %
14.10.2021 11:10 10,8 C 10,6 C 10,0 C 96 % 1025,6 hPa 0,0 l/m 0 min 0 min 110 W/m 6,4 km/h (2 Bft) 100,00 %
14.10.2021 11:12 10,8 C 10,6 C 10,0 C 96 % 1025,6 hPa 0,0 l/m 0 min 0 min 118 W/m 6,4 km/h (2 Bft) 100,00 %
14.10.2021 11:14 10,8 C 11,1 C 10,0 C 96 % 1025,6 hPa 0,0 l/m 0 min 0 min 121 W/m 6,4 km/h (2 Bft) 100,00 %
14.10.2021 11:16 10,8 C 11,1 C 10,0 C 96 % 1025,5 hPa 0,0 l/m 0 min 0 min 122 W/m 6,4 km/h (2 Bft) 100,00 %
14.10.2021 11:18 10,9 C 11,1 C 10,0 C 96 % 1025,6 hPa 0,0 l/m 0 min 0 min 111 W/m 9,7 km/h (2 Bft) 97,87 %
14.10.2021 11:20 10,9 C 11,1 C 10,0 C 96 % 1025,6 hPa 0,0 l/m 0 min 0 min 102 W/m 9,7 km/h (2 Bft) 95,74 %
14.10.2021 11:22 10,9 C 11,1 C 10,0 C 96 % 1025,6 hPa 0,0 l/m 0 min 0 min 97 W/m 9,7 km/h (2 Bft) 100,00 %
14.10.2021 11:24 10,9 C 11,1 C 10,0 C 96 % 1025,5 hPa 0,0 l/m 0 min 0 min 95 W/m 12,9 km/h (3 Bft) 97,87 %
14.10.2021 11:26 10,9 C 11,1 C 10,0 C 96 % 1025,5 hPa 0,0 l/m 0 min 0 min 83 W/m 6,4 km/h (2 Bft) 95,74 %
14.10.2021 11:28 11,0 C 11,1 C 10,0 C 95 % 1025,5 hPa 0,0 l/m 0 min 0 min 80 W/m 12,9 km/h (3 Bft) 100,00 %
14.10.2021 11:30 11,0 C 10,6 C 10,0 C 95 % 1025,5 hPa 0,0 l/m 0 min 0 min 83 W/m 19,3 km/h (3 Bft) 97,87 %
14.10.2021 11:32 11,0 C 11,1 C 10,0 C 95 % 1025,5 hPa 0,0 l/m 0 min 0 min 81 W/m 6,4 km/h (2 Bft) 95,74 %
14.10.2021 11:34 11,0 C 11,1 C 10,6 C 95 % 1025,5 hPa 0,0 l/m 0 min 0 min 75 W/m 6,4 km/h (2 Bft) 95,65 %
14.10.2021 11:36 11,0 C 11,1 C 10,6 C 95 % 1025,5 hPa 0,0 l/m 0 min 0 min 75 W/m 9,7 km/h (2 Bft) 93,62 %
14.10.2021 11:38 11,0 C 11,1 C 10,6 C 95 % 1025,5 hPa 0,0 l/m 0 min 0 min 82 W/m 12,9 km/h (3 Bft) 93,62 %
14.10.2021 11:40 11,0 C 11,1 C 10,6 C 95 % 1025,5 hPa 0,0 l/m 0 min 0 min 80 W/m 6,4 km/h (2 Bft) 95,74 %
14.10.2021 11:42 11,1 C 11,1 C 10,6 C 95 % 1025,4 hPa 0,0 l/m 0 min 0 min 79 W/m 9,7 km/h (2 Bft) 95,74 %
14.10.2021 11:44 11,1 C 11,1 C 10,6 C 95 % 1025,3 hPa 0,0 l/m 0 min 0 min 77 W/m 3,2 km/h (1 Bft) 95,74 %
14.10.2021 11:46 11,1 C 11,1 C 10,6 C 95 % 1025,3 hPa 0,0 l/m 0 min 0 min 71 W/m 9,7 km/h (2 Bft) 95,65 %
14.10.2021 11:48 11,1 C 11,1 C 10,6 C 95 % 1025,4 hPa 0,0 l/m 0 min 0 min 66 W/m 9,7 km/h (2 Bft) 95,74 %
14.10.2021 11:50 11,1 C 11,1 C 10,6 C 95 % 1025,4 hPa 0,0 l/m 0 min 0 min 66 W/m 6,4 km/h (2 Bft) 95,74 %
14.10.2021 11:52 11,1 C 11,1 C 10,6 C 95 % 1025,4 hPa 0,0 l/m 0 min 0 min 69 W/m 12,9 km/h (3 Bft) 95,74 %
14.10.2021 11:54 11,2 C 11,1 C 10,6 C 95 % 1025,3 hPa 0,0 l/m 0 min 0 min 69 W/m 6,4 km/h (2 Bft) 95,74 %
14.10.2021 11:56 11,2 C 11,1 C 10,6 C 95 % 1025,4 hPa 0,0 l/m 0 min 0 min 74 W/m 9,7 km/h (2 Bft) 93,48 %
14.10.2021 11:58 11,2 C 11,1 C 10,6 C 95 % 1025,3 hPa 0,0 l/m 0 min 0 min 77 W/m 9,7 km/h (2 Bft) 95,74 %
14.10.2021 12:00 11,2 C 11,1 C 10,6 C 95 % 1025,4 hPa 0,0 l/m 0 min 0 min 81 W/m 16,1 km/h (3 Bft) 93,62 %
14.10.2021 12:02 11,2 C 11,1 C 10,6 C 94 % 1025,3 hPa 0,0 l/m 0 min 0 min 81 W/m 9,7 km/h (2 Bft) 95,74 %
14.10.2021 12:04 11,3 C 11,1 C 10,6 C 94 % 1025,3 hPa 0,0 l/m 0 min 0 min 80 W/m 6,4 km/h (2 Bft) 95,74 %
14.10.2021 12:06 11,3 C 11,1 C 10,6 C 94 % 1025,3 hPa 0,0 l/m 0 min 0 min 81 W/m 16,1 km/h (3 Bft) 97,92 %
14.10.2021 12:08 11,3 C 11,1 C 10,6 C 94 % 1025,3 hPa 0,0 l/m 0 min 0 min 84 W/m 12,9 km/h (3 Bft) 97,83 %
14.10.2021 12:10 11,3 C 11,1 C 10,6 C 94 % 1025,3 hPa 0,0 l/m 0 min 0 min 88 W/m 12,9 km/h (3 Bft) 97,87 %
14.10.2021 12:12 11,3 C 11,1 C 10,6 C 94 % 1025,3 hPa 0,0 l/m 0 min 0 min 94 W/m 12,9 km/h (3 Bft) 97,87 %
14.10.2021 12:14 11,4 C 11,1 C 10,6 C 94 % 1025,3 hPa 0,0 l/m 0 min 0 min 98 W/m 12,9 km/h (3 Bft) 97,87 %
14.10.2021 12:16 11,4 C 11,1 C 10,6 C 94 % 1025,2 hPa 0,0 l/m 0 min 0 min 100 W/m 16,1 km/h (3 Bft) 97,87 %
14.10.2021 12:18 11,4 C 11,7 C 10,6 C 94 % 1025,2 hPa 0,0 l/m 0 min 0 min 100 W/m 6,4 km/h (2 Bft) 97,87 %
14.10.2021 12:20 11,4 C 11,7 C 10,6 C 94 % 1025,2 hPa 0,0 l/m 0 min 0 min 97 W/m 9,7 km/h (2 Bft) 97,83 %
14.10.2021 12:22 11,5 C 11,7 C 10,6 C 94 % 1025,3 hPa 0,0 l/m 0 min 0 min 95 W/m 12,9 km/h (3 Bft) 97,87 %
14.10.2021 12:24 11,5 C 11,7 C 10,6 C 94 % 1025,2 hPa 0,0 l/m 0 min 0 min 94 W/m 9,7 km/h (2 Bft) 97,87 %
14.10.2021 12:26 11,5 C 11,7 C 10,6 C 94 % 1025,3 hPa 0,0 l/m 0 min 0 min 91 W/m 19,3 km/h (3 Bft) 97,87 %
14.10.2021 12:28 11,5 C 11,7 C 10,6 C 94 % 1025,3 hPa 0,0 l/m 0 min 0 min 89 W/m 12,9 km/h (3 Bft) 95,74 %
14.10.2021 12:30 11,5 C 11,7 C 10,6 C 94 % 1025,3 hPa 0,0 l/m 0 min 0 min 84 W/m 12,9 km/h (3 Bft) 97,87 %
14.10.2021 12:32 11,6 C 11,7 C 10,6 C 94 % 1025,3 hPa 0,0 l/m 0 min 0 min 81 W/m 12,9 km/h (3 Bft) 97,83 %
14.10.2021 12:34 11,6 C 11,7 C 11,1 C 93 % 1025,3 hPa 0,0 l/m 0 min 0 min 81 W/m 9,7 km/h (2 Bft) 97,87 %
14.10.2021 12:36 11,6 C 11,7 C 11,1 C 93 % 1025,3 hPa 0,0 l/m 0 min 0 min 78 W/m 6,4 km/h (2 Bft) 97,87 %
14.10.2021 12:38 11,7 C 11,7 C 11,1 C 93 % 1025,3 hPa 0,0 l/m 0 min 0 min 98 W/m 6,4 km/h (2 Bft) 97,96 %
14.10.2021 12:40 11,7 C 11,7 C 11,1 C 93 % 1025,2 hPa 0,0 l/m 0 min 0 min 105 W/m 6,4 km/h (2 Bft) 97,87 %
14.10.2021 12:42 11,8 C 11,7 C 11,1 C 93 % 1025,2 hPa 0,0 l/m 0 min 0 min 107 W/m 6,4 km/h (2 Bft) 97,87 %
14.10.2021 12:44 11,8 C 11,7 C 11,1 C 93 % 1025,2 hPa 0,0 l/m 0 min 0 min 109 W/m 12,9 km/h (3 Bft) 97,87 %
14.10.2021 12:46 11,8 C 11,7 C 11,1 C 93 % 1025,2 hPa 0,0 l/m 0 min 0 min 108 W/m 12,9 km/h (3 Bft) 95,74 %
14.10.2021 12:48 11,9 C 11,7 C 11,1 C 93 % 1025,2 hPa 0,0 l/m 0 min 0 min 103 W/m 12,9 km/h (3 Bft) 97,87 %
14.10.2021 12:50 11,9 C 11,7 C 11,1 C 93 % 1025,2 hPa 0,0 l/m 0 min 0 min 102 W/m 12,9 km/h (3 Bft) 97,83 %
14.10.2021 12:52 11,9 C 11,7 C 11,1 C 93 % 1025,2 hPa 0,0 l/m 0 min 0 min 98 W/m 12,9 km/h (3 Bft) 97,87 %
14.10.2021 12:54 12,0 C 11,7 C 11,1 C 93 % 1025,1 hPa 0,0 l/m 0 min 0 min 95 W/m 16,1 km/h (3 Bft) 97,87 %
14.10.2021 12:56 12,0 C 12,2 C 11,1 C 93 % 1025,1 hPa 0,0 l/m 0 min 0 min 103 W/m 12,9 km/h (3 Bft) 97,87 %
14.10.2021 12:58 12,0 C 12,2 C 11,1 C 93 % 1025,1 hPa 0,0 l/m 0 min 0 min 112 W/m 12,9 km/h (3 Bft) 97,87 %
14.10.2021 13:00 12,1 C 12,2 C 11,1 C 93 % 1025,1 hPa 0,0 l/m 0 min 0 min 113 W/m 6,4 km/h (2 Bft) 97,83 %
14.10.2021 13:02 12,1 C 12,2 C 11,1 C 93 % 1025,0 hPa 0,0 l/m 0 min 0 min 118 W/m 12,9 km/h (3 Bft) 100,00 %
14.10.2021 13:04 12,1 C 12,2 C 11,1 C 93 % 1025,0 hPa 0,0 l/m 0 min 0 min 128 W/m 6,4 km/h (2 Bft) 100,00 %
14.10.2021 13:06 12,2 C 12,2 C 11,1 C 92 % 1025,0 hPa 0,0 l/m 0 min 0 min 140 W/m 16,1 km/h (3 Bft) 100,00 %
14.10.2021 13:08 12,2 C 12,2 C 11,7 C 92 % 1025,0 hPa 0,0 l/m 0 min 0 min 159 W/m 16,1 km/h (3 Bft) 100,00 %
14.10.2021 13:10 12,3 C 12,2 C 11,7 C 92 % 1025,0 hPa 0,0 l/m 0 min 0 min 179 W/m 12,9 km/h (3 Bft) 100,00 %
14.10.2021 13:12 12,3 C 12,2 C 11,7 C 92 % 1024,9 hPa 0,0 l/m 0 min 0 min 183 W/m 12,9 km/h (3 Bft) 100,00 %
14.10.2021 13:14 12,4 C 12,8 C 11,7 C 92 % 1024,9 hPa 0,0 l/m 0 min 0 min 178 W/m 12,9 km/h (3 Bft) 100,00 %
14.10.2021 13:16 12,4 C 12,8 C 11,7 C 92 % 1024,9 hPa 0,0 l/m 0 min 0 min 169 W/m 12,9 km/h (3 Bft) 97,83 %
14.10.2021 13:18 12,5 C 12,8 C 11,7 C 92 % 1024,8 hPa 0,0 l/m 0 min 0 min 167 W/m 12,9 km/h (3 Bft) 97,87 %
14.10.2021 13:20 12,5 C 12,8 C 12,3 C 92 % 1024,8 hPa 0,0 l/m 0 min 0 min 169 W/m 9,7 km/h (2 Bft) 100,00 %
14.10.2021 13:22 12,6 C 12,8 C 12,3 C 92 % 1024,8 hPa 0,0 l/m 0 min 0 min 173 W/m 9,7 km/h (2 Bft) 97,87 %
14.10.2021 13:24 12,6 C 12,8 C 12,3 C 92 % 1024,7 hPa 0,0 l/m 0 min 0 min 165 W/m 12,9 km/h (3 Bft) 100,00 %
14.10.2021 13:26 12,6 C 12,8 C 12,3 C 92 % 1024,7 hPa 0,0 l/m 0 min 0 min 166 W/m 9,7 km/h (2 Bft) 97,87 %
14.10.2021 13:28 12,7 C 12,8 C 12,3 C 92 % 1024,7 hPa 0,0 l/m 0 min 0 min 175 W/m 9,7 km/h (2 Bft) 97,83 %
14.10.2021 13:30 12,8 C 12,8 C 12,3 C 92 % 1024,6 hPa 0,0 l/m 0 min 0 min 184 W/m 12,9 km/h (3 Bft) 97,87 %
14.10.2021 13:32 12,8 C 13,3 C 12,3 C 91 % 1024,7 hPa 0,0 l/m 0 min 0 min 192 W/m 12,9 km/h (3 Bft) 95,74 %
14.10.2021 13:34 12,9 C 13,3 C 12,3 C 91 % 1024,6 hPa 0,0 l/m 0 min 0 min 200 W/m 16,1 km/h (3 Bft) 97,87 %
14.10.2021 13:36 12,9 C 13,3 C 12,3 C 91 % 1024,5 hPa 0,0 l/m 0 min 0 min 204 W/m 12,9 km/h (3 Bft) 95,74 %
14.10.2021 13:38 12,9 C 13,3 C 12,3 C 91 % 1024,5 hPa 0,0 l/m 0 min 0 min 186 W/m 6,4 km/h (2 Bft) 97,87 %
14.10.2021 13:40 13,0 C 13,3 C 12,3 C 91 % 1024,5 hPa 0,0 l/m 0 min 0 min 170 W/m 16,1 km/h (3 Bft) 97,83 %
14.10.2021 13:42 13,0 C 13,3 C 12,3 C 91 % 1024,4 hPa 0,0 l/m 0 min 0 min 172 W/m 25,7 km/h (4 Bft) 97,87 %
14.10.2021 13:44 13,0 C 13,3 C 12,3 C 91 % 1024,4 hPa 0,0 l/m 0 min 0 min 175 W/m 19,3 km/h (3 Bft) 97,87 %
14.10.2021 13:46 13,0 C 13,3 C 12,3 C 90 % 1024,4 hPa 0,0 l/m 0 min 0 min 165 W/m 16,1 km/h (3 Bft) 97,87 %
14.10.2021 13:48 13,1 C 13,3 C 12,3 C 90 % 1024,3 hPa 0,0 l/m 0 min 0 min 173 W/m 19,3 km/h (3 Bft) 97,87 %
14.10.2021 13:50 13,1 C 13,3 C 12,3 C 90 % 1024,3 hPa 0,0 l/m 0 min 0 min 195 W/m 25,7 km/h (4 Bft) 97,83 %
14.10.2021 13:52 13,1 C 13,3 C 12,3 C 90 % 1024,3 hPa 0,0 l/m 0 min 0 min 191 W/m 16,1 km/h (3 Bft) 97,87 %
14.10.2021 13:54 13,2 C 13,3 C 12,3 C 90 % 1024,3 hPa 0,0 l/m 0 min 0 min 187 W/m 19,3 km/h (3 Bft) 97,87 %
14.10.2021 13:56 13,3 C 13,3 C 12,3 C 90 % 1024,3 hPa 0,0 l/m 0 min 0 min 183 W/m 19,3 km/h (3 Bft) 97,87 %
14.10.2021 13:58 13,3 C 13,3 C 12,3 C 90 % 1024,3 hPa 0,0 l/m 0 min 0 min 160 W/m 16,1 km/h (3 Bft) 97,87 %
14.10.2021 14:00 13,3 C 13,3 C 12,3 C 90 % 1024,3 hPa 0,0 l/m 0 min 0 min 143 W/m 16,1 km/h (3 Bft) 97,87 %
14.10.2021 14:02 13,4 C 13,3 C 12,3 C 90 % 1024,2 hPa 0,0 l/m 0 min 0 min 152 W/m 9,7 km/h (2 Bft) 97,83 %
14.10.2021 14:04 13,4 C 13,3 C 12,8 C 90 % 1024,3 hPa 0,0 l/m 0 min 0 min 161 W/m 9,7 km/h (2 Bft) 91,67 %
14.10.2021 14:06 13,4 C 13,3 C 12,8 C 90 % 1024,2 hPa 0,0 l/m 0 min 0 min 161 W/m 16,1 km/h (3 Bft) 100,00 %
14.10.2021 14:08 13,4 C 13,3 C 12,8 C 89 % 1024,1 hPa 0,0 l/m 0 min 0 min 173 W/m 12,9 km/h (3 Bft) 100,00 %
14.10.2021 14:10 13,5 C 13,9 C 12,8 C 90 % 1024,1 hPa 0,0 l/m 0 min 0 min 170 W/m 12,9 km/h (3 Bft) 97,87 %
14.10.2021 14:12 13,5 C 13,9 C 12,8 C 90 % 1024,1 hPa 0,0 l/m 0 min 0 min 172 W/m 12,9 km/h (3 Bft) 100,00 %
14.10.2021 14:14 13,5 C 13,9 C 12,8 C 89 % 1024,1 hPa 0,0 l/m 0 min 0 min 179 W/m 22,5 km/h (4 Bft) 97,83 %
14.10.2021 14:16 13,6 C 13,9 C 12,8 C 89 % 1024,1 hPa 0,0 l/m 0 min 0 min 184 W/m 19,3 km/h (3 Bft) 97,87 %
14.10.2021 14:18 13,6 C 13,9 C 12,8 C 89 % 1024,1 hPa 0,0 l/m 0 min 0 min 181 W/m 19,3 km/h (3 Bft) 100,00 %
14.10.2021 14:20 13,6 C 13,9 C 12,8 C 89 % 1024,1 hPa 0,0 l/m 0 min 0 min 179 W/m 16,1 km/h (3 Bft) 97,87 %
14.10.2021 14:22 13,7 C 13,9 C 12,8 C 89 % 1024,0 hPa 0,0 l/m 0 min 0 min 180 W/m 6,4 km/h (2 Bft) 97,87 %
14.10.2021 14:24 13,8 C 13,9 C 12,8 C 89 % 1024,0 hPa 0,0 l/m 0 min 0 min 183 W/m 12,9 km/h (3 Bft) 100,00 %
14.10.2021 14:26 13,9 C 13,9 C 12,8 C 89 % 1024,0 hPa 0,0 l/m 0 min 0 min 186 W/m 12,9 km/h (3 Bft) 100,00 %
14.10.2021 14:28 13,9 C 13,9 C 12,8 C 89 % 1024,0 hPa 0,0 l/m 0 min 0 min 190 W/m 12,9 km/h (3 Bft) 95,74 %
14.10.2021 14:30 14,0 C 13,9 C 12,8 C 88 % 1023,9 hPa 0,0 l/m 0 min 0 min 196 W/m 19,3 km/h (3 Bft) 97,87 %
14.10.2021 14:32 14,0 C 14,4 C 13,4 C 88 % 1023,9 hPa 0,0 l/m 0 min 0 min 197 W/m 12,9 km/h (3 Bft) 95,74 %
14.10.2021 14:34 14,0 C 14,4 C 13,4 C 88 % 1023,9 hPa 0,0 l/m 0 min 0 min 203 W/m 12,9 km/h (3 Bft) 97,87 %
14.10.2021 14:36 14,1 C 14,4 C 13,4 C 88 % 1023,9 hPa 0,0 l/m 0 min 0 min 201 W/m 16,1 km/h (3 Bft) 97,83 %
14.10.2021 14:38 14,1 C 14,4 C 13,4 C 88 % 1023,9 hPa 0,0 l/m 0 min 0 min 195 W/m 16,1 km/h (3 Bft) 97,87 %
14.10.2021 14:40 14,2 C 14,4 C 13,4 C 88 % 1023,9 hPa 0,0 l/m 0 min 0 min 203 W/m 12,9 km/h (3 Bft) 97,87 %
14.10.2021 14:42 14,2 C 14,4 C 13,4 C 87 % 1023,9 hPa 0,0 l/m 2 min 0 min 239 W/m 16,1 km/h (3 Bft) 97,87 %
14.10.2021 14:44 14,2 C 14,4 C 13,4 C 87 % 1023,9 hPa 0,0 l/m 2 min 0 min 337 W/m 16,1 km/h (3 Bft) 97,87 %
14.10.2021 14:46 14,2 C 15,0 C 13,4 C 87 % 1023,9 hPa 0,0 l/m 2 min 0 min 307 W/m 9,7 km/h (2 Bft) 97,87 %
14.10.2021 14:48 14,3 C 15,0 C 13,4 C 87 % 1023,9 hPa 0,0 l/m 2 min 0 min 258 W/m 16,1 km/h (3 Bft) 93,48 %
14.10.2021 14:50 14,4 C 15,0 C 13,4 C 87 % 1023,8 hPa 0,0 l/m 2 min 0 min 301 W/m 6,4 km/h (2 Bft) 97,87 %
14.10.2021 14:52 14,5 C 15,0 C 13,4 C 87 % 1023,8 hPa 0,0 l/m 2 min 0 min 282 W/m 9,7 km/h (2 Bft) 97,87 %
14.10.2021 14:54 14,5 C 15,0 C 13,4 C 87 % 1023,8 hPa 0,0 l/m 2 min 0 min 286 W/m 16,1 km/h (3 Bft) 95,74 %
14.10.2021 14:56 14,6 C 15,0 C 13,4 C 86 % 1023,7 hPa 0,0 l/m 2 min 0 min 292 W/m 16,1 km/h (3 Bft) 95,74 %
14.10.2021 14:58 14,6 C 15,6 C 13,4 C 86 % 1023,7 hPa 0,0 l/m 2 min 0 min 289 W/m 19,3 km/h (3 Bft) 95,74 %
14.10.2021 15:00 14,8 C 15,6 C 13,9 C 86 % 1023,7 hPa 0,0 l/m 2 min 0 min 296 W/m 12,9 km/h (3 Bft) 95,65 %
14.10.2021 15:02 14,9 C 15,6 C 13,9 C 86 % 1023,7 hPa 0,0 l/m 2 min 0 min 338 W/m 12,9 km/h (3 Bft) 95,74 %
14.10.2021 15:04 15,0 C 15,6 C 13,9 C 86 % 1023,7 hPa 0,0 l/m 2 min 0 min 309 W/m 12,9 km/h (3 Bft) 93,62 %
14.10.2021 15:06 15,0 C 15,6 C 13,9 C 85 % 1023,6 hPa 0,0 l/m 2 min 0 min 257 W/m 9,7 km/h (2 Bft) 95,74 %
14.10.2021 15:08 15,1 C 15,6 C 13,9 C 85 % 1023,6 hPa 0,0 l/m 2 min 0 min 256 W/m 12,9 km/h (3 Bft) 93,62 %
14.10.2021 15:10 15,2 C 15,6 C 13,9 C 84 % 1023,6 hPa 0,0 l/m 2 min 0 min 287 W/m 12,9 km/h (3 Bft) 95,74 %
14.10.2021 15:12 15,3 C 15,6 C 13,9 C 84 % 1023,6 hPa 0,0 l/m 2 min 0 min 285 W/m 6,4 km/h (2 Bft) 95,65 %
14.10.2021 15:14 15,4 C 15,6 C 13,9 C 84 % 1023,6 hPa 0,0 l/m 2 min 0 min 231 W/m 6,4 km/h (2 Bft) 95,74 %
14.10.2021 15:16 15,4 C 15,6 C 13,9 C 84 % 1023,6 hPa 0,0 l/m 2 min 0 min 230 W/m 9,7 km/h (2 Bft) 95,74 %
14.10.2021 15:18 15,5 C 15,6 C 13,9 C 84 % 1023,6 hPa 0,0 l/m 0 min 0 min 208 W/m 16,1 km/h (3 Bft) 93,62 %
14.10.2021 15:20 15,5 C 15,6 C 13,9 C 84 % 1023,6 hPa 0,0 l/m 0 min 0 min 190 W/m 12,9 km/h (3 Bft) 95,74 %
14.10.2021 15:22 15,4 C 15,0 C 13,9 C 83 % 1023,6 hPa 0,0 l/m 0 min 0 min 144 W/m 19,3 km/h (3 Bft) 95,74 %
14.10.2021 15:24 15,3 C 15,0 C 13,9 C 83 % 1023,6 hPa 0,0 l/m 0 min 0 min 116 W/m 16,1 km/h (3 Bft) 95,65 %
14.10.2021 15:26 15,3 C 15,0 C 13,4 C 83 % 1023,6 hPa 0,0 l/m 0 min 0 min 123 W/m 6,4 km/h (2 Bft) 95,74 %
14.10.2021 15:28 15,3 C 15,0 C 13,4 C 83 % 1023,6 hPa 0,0 l/m 0 min 0 min 135 W/m 12,9 km/h (3 Bft) 97,87 %
14.10.2021 15:30 15,3 C 15,0 C 13,4 C 84 % 1023,6 hPa 0,0 l/m 0 min 0 min 150 W/m 16,1 km/h (3 Bft) 97,87 %
14.10.2021 15:32 15,3 C 15,0 C 13,4 C 84 % 1023,5 hPa 0,0 l/m 0 min 0 min 160 W/m 6,4 km/h (2 Bft) 97,87 %
14.10.2021 15:34 15,3 C 15,0 C 13,9 C 84 % 1023,5 hPa 0,0 l/m 0 min 0 min 168 W/m 19,3 km/h (3 Bft) 100,00 %
14.10.2021 15:36 15,2 C 15,0 C 13,9 C 83 % 1023,4 hPa 0,0 l/m 0 min 0 min 172 W/m 12,9 km/h (3 Bft) 95,74 %
14.10.2021 15:38 15,2 C 15,0 C 13,9 C 83 % 1023,4 hPa 0,0 l/m 0 min 0 min 177 W/m 9,7 km/h (2 Bft) 100,00 %
14.10.2021 15:40 15,3 C 15,0 C 13,9 C 83 % 1023,4 hPa 0,0 l/m 0 min 0 min 182 W/m 16,1 km/h (3 Bft) 100,00 %
14.10.2021 15:42 15,2 C 15,0 C 13,4 C 83 % 1023,4 hPa 0,0 l/m 0 min 0 min 171 W/m 16,1 km/h (3 Bft) 95,74 %
14.10.2021 15:44 15,2 C 15,0 C 13,4 C 83 % 1023,4 hPa 0,0 l/m 0 min 0 min 160 W/m 12,9 km/h (3 Bft) 97,87 %
14.10.2021 15:46 15,2 C 15,0 C 13,4 C 83 % 1023,4 hPa 0,0 l/m 0 min 0 min 147 W/m 16,1 km/h (3 Bft) 97,83 %
14.10.2021 15:48 15,3 C 15,0 C 13,4 C 83 % 1023,3 hPa 0,0 l/m 0 min 0 min 133 W/m 6,4 km/h (2 Bft) 97,87 %
14.10.2021 15:50 15,3 C 15,0 C 13,4 C 84 % 1023,3 hPa 0,0 l/m 0 min 0 min 120 W/m 6,4 km/h (2 Bft) 97,87 %
14.10.2021 15:52 15,3 C 15,0 C 13,4 C 83 % 1023,3 hPa 0,0 l/m 0 min 0 min 119 W/m 12,9 km/h (3 Bft) 97,87 %
14.10.2021 15:54 15,3 C 15,0 C 13,4 C 83 % 1023,3 hPa 0,0 l/m 0 min 0 min 115 W/m 6,4 km/h (2 Bft) 97,87 %
14.10.2021 15:56 15,3 C 15,0 C 13,4 C 83 % 1023,3 hPa 0,0 l/m 0 min 0 min 119 W/m 16,1 km/h (3 Bft) 97,87 %
14.10.2021 15:58 15,3 C 15,0 C 13,4 C 83 % 1023,3 hPa 0,0 l/m 0 min 0 min 123 W/m 12,9 km/h (3 Bft) 97,83 %
14.10.2021 16:00 15,2 C 15,0 C 13,4 C 83 % 1023,2 hPa 0,0 l/m 0 min 0 min 122 W/m 16,1 km/h (3 Bft) 97,87 %
14.10.2021 16:02 15,2 C 15,0 C 13,4 C 83 % 1023,2 hPa 0,0 l/m 0 min 0 min 114 W/m 16,1 km/h (3 Bft) 95,74 %
14.10.2021 16:04 15,1 C 15,0 C 13,4 C 83 % 1023,2 hPa 0,0 l/m 0 min 0 min 109 W/m 19,3 km/h (3 Bft) 97,92 %
14.10.2021 16:06 15,1 C 15,0 C 13,4 C 83 % 1023,1 hPa 0,0 l/m 0 min 0 min 123 W/m 3,2 km/h (1 Bft) 95,74 %
14.10.2021 16:08 15,2 C 15,0 C 13,4 C 84 % 1023,2 hPa 0,0 l/m 0 min 0 min 133 W/m 6,4 km/h (2 Bft) 97,87 %
14.10.2021 16:10 15,2 C 15,0 C 13,4 C 84 % 1023,1 hPa 0,0 l/m 0 min 0 min 129 W/m 9,7 km/h (2 Bft) 97,83 %
14.10.2021 16:12 15,1 C 15,0 C 13,4 C 83 % 1023,1 hPa 0,0 l/m 0 min 0 min 128 W/m 16,1 km/h (3 Bft) 97,87 %
14.10.2021 16:14 15,1 C 15,0 C 13,4 C 83 % 1023,1 hPa 0,0 l/m 0 min 0 min 119 W/m 12,9 km/h (3 Bft) 91,49 %
14.10.2021 16:16 15,1 C 15,0 C 13,4 C 83 % 1023,1 hPa 0,0 l/m 0 min 0 min 106 W/m 6,4 km/h (2 Bft) 97,87 %
14.10.2021 16:18 15,1 C 15,0 C 13,4 C 83 % 1023,1 hPa 0,0 l/m 0 min 0 min 103 W/m 6,4 km/h (2 Bft) 100,00 %
14.10.2021 16:20 15,1 C 15,0 C 13,4 C 83 % 1023,0 hPa 0,0 l/m 0 min 0 min 104 W/m 6,4 km/h (2 Bft) 100,00 %
14.10.2021 16:22 15,1 C 15,0 C 13,4 C 84 % 1023,1 hPa 0,0 l/m 0 min 0 min 103 W/m 12,9 km/h (3 Bft) 97,87 %
14.10.2021 16:24 15,1 C 15,0 C 13,4 C 83 % 1023,0 hPa 0,0 l/m 0 min 0 min 100 W/m 12,9 km/h (3 Bft) 100,00 %
14.10.2021 16:26 15,1 C 14,4 C 13,4 C 83 % 1023,1 hPa 0,0 l/m 0 min 0 min 105 W/m 12,9 km/h (3 Bft) 100,00 %
14.10.2021 16:28 15,0 C 14,4 C 13,4 C 83 % 1023,0 hPa 0,0 l/m 0 min 0 min 106 W/m 6,4 km/h (2 Bft) 100,00 %
14.10.2021 16:30 15,1 C 14,4 C 13,4 C 84 % 1023,0 hPa 0,0 l/m 0 min 0 min 99 W/m 19,3 km/h (3 Bft) 100,00 %
14.10.2021 16:32 15,0 C 14,4 C 13,4 C 83 % 1023,0 hPa 0,0 l/m 0 min 0 min 95 W/m 16,1 km/h (3 Bft) 95,65 %
14.10.2021 16:34 15,0 C 14,4 C 13,4 C 83 % 1022,9 hPa 0,0 l/m 0 min 0 min 98 W/m 6,4 km/h (2 Bft) 100,00 %
14.10.2021 16:36 15,0 C 14,4 C 13,4 C 84 % 1022,9 hPa 0,0 l/m 0 min 0 min 102 W/m 12,9 km/h (3 Bft) 100,00 %
14.10.2021 16:38 15,0 C 14,4 C 13,4 C 83 % 1022,9 hPa 0,0 l/m 0 min 0 min 104 W/m 12,9 km/h (3 Bft) 100,00 %
14.10.2021 16:40 15,0 C 14,4 C 13,4 C 83 % 1022,9 hPa 0,0 l/m 0 min 0 min 108 W/m 12,9 km/h (3 Bft) 100,00 %
14.10.2021 16:42 15,0 C 14,4 C 13,4 C 83 % 1022,9 hPa 0,0 l/m 0 min 0 min 110 W/m 19,3 km/h (3 Bft) 95,74 %
14.10.2021 16:44 15,0 C 14,4 C 13,4 C 83 % 1022,9 hPa 0,0 l/m 0 min 0 min 110 W/m 16,1 km/h (3 Bft) 100,00 %
14.10.2021 16:46 15,0 C 14,4 C 13,4 C 83 % 1022,8 hPa 0,0 l/m 0 min 0 min 113 W/m 12,9 km/h (3 Bft) 100,00 %
14.10.2021 16:48 15,0 C 14,4 C 13,4 C 83 % 1022,9 hPa 0,0 l/m 0 min 0 min 113 W/m 12,9 km/h (3 Bft) 100,00 %
14.10.2021 16:50 15,0 C 14,4 C 13,4 C 83 % 1022,9 hPa 0,0 l/m 0 min 0 min 106 W/m 9,7 km/h (2 Bft) 100,00 %
14.10.2021 16:52 15,0 C 14,4 C 13,4 C 83 % 1022,8 hPa 0,0 l/m 0 min 0 min 103 W/m 9,7 km/h (2 Bft) 97,87 %
14.10.2021 16:54 15,0 C 14,4 C 13,4 C 83 % 1022,8 hPa 0,0 l/m 0 min 0 min 93 W/m 19,3 km/h (3 Bft) 100,00 %
14.10.2021 16:56 15,0 C 14,4 C 13,4 C 83 % 1022,8 hPa 0,0 l/m 0 min 0 min 93 W/m 16,1 km/h (3 Bft) 100,00 %
14.10.2021 16:58 15,0 C 14,4 C 13,4 C 83 % 1022,8 hPa 0,0 l/m 0 min 0 min 96 W/m 6,4 km/h (2 Bft) 100,00 %
14.10.2021 17:00 15,0 C 14,4 C 13,4 C 83 % 1022,8 hPa 0,0 l/m 0 min 0 min 96 W/m 12,9 km/h (3 Bft) 100,00 %
14.10.2021 17:02 15,0 C 14,4 C 13,4 C 83 % 1022,8 hPa 0,0 l/m 0 min 0 min 103 W/m 19,3 km/h (3 Bft) 100,00 %
14.10.2021 17:04 14,9 C 14,4 C 12,8 C 83 % 1022,8 hPa 0,0 l/m 0 min 0 min 105 W/m 12,9 km/h (3 Bft) 97,87 %
14.10.2021 17:06 14,9 C 14,4 C 12,8 C 83 % 1022,8 hPa 0,0 l/m 0 min 0 min 102 W/m 9,7 km/h (2 Bft) 100,00 %
14.10.2021 17:08 14,9 C 14,4 C 12,8 C 83 % 1022,8 hPa 0,0 l/m 0 min 0 min 105 W/m 16,1 km/h (3 Bft) 95,65 %
14.10.2021 17:10 14,9 C 14,4 C 12,8 C 83 % 1022,8 hPa 0,0 l/m 0 min 0 min 98 W/m 16,1 km/h (3 Bft) 100,00 %
14.10.2021 17:12 14,9 C 14,4 C 12,8 C 83 % 1022,8 hPa 0,0 l/m 0 min 0 min 91 W/m 12,9 km/h (3 Bft) 100,00 %
14.10.2021 17:14 14,9 C 14,4 C 12,8 C 83 % 1022,8 hPa 0,0 l/m 0 min 0 min 96 W/m 12,9 km/h (3 Bft) 100,00 %
14.10.2021 17:16 14,9 C 14,4 C 12,8 C 83 % 1022,7 hPa 0,0 l/m 0 min 0 min 97 W/m 12,9 km/h (3 Bft) 100,00 %
14.10.2021 17:18 14,9 C 14,4 C 12,8 C 83 % 1022,8 hPa 0,0 l/m 0 min 0 min 96 W/m 3,2 km/h (1 Bft) 100,00 %
14.10.2021 17:20 14,9 C 14,4 C 12,8 C 84 % 1022,7 hPa 0,0 l/m 2 min 0 min 98 W/m 9,7 km/h (2 Bft) 100,00 %
14.10.2021 17:22 14,9 C 14,4 C 12,8 C 84 % 1022,7 hPa 0,0 l/m 2 min 0 min 99 W/m 12,9 km/h (3 Bft) 97,87 %
14.10.2021 17:24 14,9 C 14,4 C 12,8 C 84 % 1022,7 hPa 0,0 l/m 2 min 0 min 97 W/m 12,9 km/h (3 Bft) 100,00 %
14.10.2021 17:26 14,9 C 14,4 C 12,8 C 84 % 1022,7 hPa 0,0 l/m 2 min 0 min 97 W/m 12,9 km/h (3 Bft) 95,74 %
14.10.2021 17:28 14,8 C 14,4 C 12,8 C 83 % 1022,6 hPa 0,0 l/m 2 min 0 min 96 W/m 19,3 km/h (3 Bft) 95,74 %
14.10.2021 17:30 14,8 C 14,4 C 12,8 C 83 % 1022,6 hPa 0,0 l/m 2 min 0 min 95 W/m 12,9 km/h (3 Bft) 97,87 %
14.10.2021 17:32 14,8 C 14,4 C 12,8 C 83 % 1022,6 hPa 0,0 l/m 2 min 0 min 97 W/m 19,3 km/h (3 Bft) 97,83 %
14.10.2021 17:34 14,7 C 14,4 C 12,8 C 83 % 1022,5 hPa 0,0 l/m 2 min 0 min 98 W/m 12,9 km/h (3 Bft) 97,87 %
14.10.2021 17:36 14,7 C 14,4 C 12,8 C 83 % 1022,5 hPa 0,0 l/m 2 min 0 min 94 W/m 12,9 km/h (3 Bft) 93,62 %
14.10.2021 17:38 14,6 C 14,4 C 12,8 C 83 % 1022,5 hPa 0,0 l/m 2 min 0 min 87 W/m 9,7 km/h (2 Bft) 97,87 %
14.10.2021 17:40 14,6 C 14,4 C 12,8 C 83 % 1022,5 hPa 0,0 l/m 2 min 0 min 79 W/m 6,4 km/h (2 Bft) 97,87 %
14.10.2021 17:42 14,6 C 14,4 C 12,8 C 83 % 1022,5 hPa 0,0 l/m 2 min 0 min 78 W/m 9,7 km/h (2 Bft) 93,62 %
14.10.2021 17:44 14,6 C 14,4 C 12,8 C 83 % 1022,5 hPa 0,0 l/m 2 min 0 min 77 W/m 22,5 km/h (4 Bft) 95,65 %
14.10.2021 17:46 14,5 C 13,9 C 12,8 C 83 % 1022,5 hPa 0,0 l/m 0 min 0 min 62 W/m 22,5 km/h (4 Bft) 93,62 %
14.10.2021 17:48 14,5 C 13,9 C 12,3 C 83 % 1022,5 hPa 0,0 l/m 0 min 0 min 54 W/m 16,1 km/h (3 Bft) 93,62 %
14.10.2021 17:50 14,4 C 13,9 C 12,3 C 83 % 1022,4 hPa 0,0 l/m 0 min 0 min 53 W/m 12,9 km/h (3 Bft) 93,62 %
14.10.2021 17:52 14,4 C 13,9 C 12,3 C 83 % 1022,5 hPa 0,0 l/m 0 min 0 min 50 W/m 12,9 km/h (3 Bft) 91,49 %
14.10.2021 17:54 14,3 C 13,9 C 12,3 C 83 % 1022,5 hPa 0,0 l/m 0 min 0 min 49 W/m 16,1 km/h (3 Bft) 93,48 %
14.10.2021 17:56 14,3 C 13,9 C 12,3 C 83 % 1022,4 hPa 0,0 l/m 0 min 0 min 47 W/m 6,4 km/h (2 Bft) 93,62 %
14.10.2021 17:58 14,3 C 13,9 C 12,3 C 84 % 1022,4 hPa 0,0 l/m 0 min 0 min 39 W/m 6,4 km/h (2 Bft) 93,62 %
14.10.2021 18:00 14,2 C 13,9 C 12,3 C 84 % 1022,4 hPa 0,0 l/m 0 min 0 min 34 W/m 6,4 km/h (2 Bft) 93,62 %
14.10.2021 18:02 14,2 C 13,3 C 12,3 C 84 % 1022,4 hPa 0,0 l/m 0 min 0 min 30 W/m 6,4 km/h (2 Bft) 91,67 %
14.10.2021 18:04 14,2 C 13,3 C 12,3 C 84 % 1022,4 hPa 0,0 l/m 0 min 0 min 23 W/m 16,1 km/h (3 Bft) 91,49 %
14.10.2021 18:08 14,2 C 13,3 C 12,3 C 84 % 1022,4 hPa 0,0 l/m 0 min 0 min 15 W/m 16,1 km/h (3 Bft) 92,47 %
14.10.2021 18:10 14,2 C 13,3 C 12,3 C 84 % 1022,4 hPa 0,0 l/m 0 min 0 min 11 W/m 6,4 km/h (2 Bft) 93,62 %
14.10.2021 18:12 14,1 C 13,3 C 12,3 C 85 % 1022,4 hPa 0,0 l/m 0 min 0 min 11 W/m 12,9 km/h (3 Bft) 95,74 %
14.10.2021 18:14 14,1 C 13,3 C 11,7 C 85 % 1022,4 hPa 0,0 l/m 0 min 0 min 9 W/m 6,4 km/h (2 Bft) 95,74 %
14.10.2021 18:16 14,1 C 13,3 C 11,7 C 85 % 1022,4 hPa 0,0 l/m 0 min 0 min 9 W/m 6,4 km/h (2 Bft) 95,65 %
14.10.2021 18:18 14,0 C 13,3 C 11,7 C 85 % 1022,4 hPa 0,0 l/m 0 min 0 min 9 W/m 6,4 km/h (2 Bft) 95,74 %
14.10.2021 18:20 14,0 C 13,3 C 11,7 C 85 % 1022,4 hPa 0,0 l/m 0 min 0 min 9 W/m 6,4 km/h (2 Bft) 97,87 %
14.10.2021 18:22 14,0 C 13,3 C 11,7 C 85 % 1022,3 hPa 0,0 l/m 0 min 0 min 8 W/m 3,2 km/h (1 Bft) 97,87 %
14.10.2021 18:24 14,0 C 13,3 C 11,7 C 85 % 1022,3 hPa 0,0 l/m 0 min 0 min 7 W/m 12,9 km/h (3 Bft) 97,87 %
14.10.2021 18:26 13,9 C 12,8 C 11,7 C 85 % 1022,3 hPa 0,0 l/m 0 min 0 min 5 W/m 6,4 km/h (2 Bft) 97,87 %
14.10.2021 18:28 13,9 C 12,8 C 11,7 C 85 % 1022,3 hPa 0,0 l/m 0 min 0 min 5 W/m 6,4 km/h (2 Bft) 97,83 %
14.10.2021 18:30 13,9 C 12,8 C 11,7 C 85 % 1022,3 hPa 0,0 l/m 0 min 0 min 5 W/m 6,4 km/h (2 Bft) 97,87 %
14.10.2021 18:32 13,9 C 12,8 C 11,7 C 85 % 1022,3 hPa 0,0 l/m 0 min 0 min 5 W/m 6,4 km/h (2 Bft) 97,87 %
14.10.2021 18:34 13,8 C 12,8 C 11,7 C 85 % 1022,3 hPa 0,0 l/m 0 min 0 min 5 W/m 6,4 km/h (2 Bft) 95,74 %
14.10.2021 18:36 13,8 C 12,8 C 11,7 C 86 % 1022,2 hPa 0,0 l/m 0 min 0 min 4 W/m 12,9 km/h (3 Bft) 95,74 %
14.10.2021 18:38 13,8 C 12,8 C 11,7 C 86 % 1022,2 hPa 0,0 l/m 0 min 0 min 0 W/m 6,4 km/h (2 Bft) 95,74 %
14.10.2021 18:40 13,8 C 12,8 C 11,7 C 86 % 1022,3 hPa 0,0 l/m 0 min 0 min 0 W/m 3,2 km/h (1 Bft) 100,00 %
14.10.2021 18:42 13,8 C 12,8 C 11,7 C 86 % 1022,2 hPa 0,0 l/m 0 min 0 min 0 W/m 6,4 km/h (2 Bft) 97,87 %
14.10.2021 18:44 13,8 C 12,8 C 11,7 C 86 % 1022,2 hPa 0,0 l/m 0 min 0 min 0 W/m 9,7 km/h (2 Bft) 100,00 %
14.10.2021 18:46 13,7 C 12,8 C 11,7 C 86 % 1022,2 hPa 0,0 l/m 0 min 0 min 0 W/m 6,4 km/h (2 Bft) 95,74 %
14.10.2021 18:48 13,7 C 12,8 C 11,7 C 86 % 1022,2 hPa 0,0 l/m 0 min 0 min 0 W/m 6,4 km/h (2 Bft) 100,00 %
14.10.2021 18:50 13,6 C 12,8 C 11,7 C 86 % 1022,2 hPa 0,0 l/m 0 min 0 min 0 W/m 6,4 km/h (2 Bft) 100,00 %
14.10.2021 18:52 13,6 C 12,8 C 11,7 C 86 % 1022,1 hPa 0,0 l/m 0 min 0 min 0 W/m 3,2 km/h (1 Bft) 100,00 %
14.10.2021 18:54 13,6 C 12,8 C 11,7 C 86 % 1022,2 hPa 0,0 l/m 0 min 0 min 0 W/m 6,4 km/h (2 Bft) 100,00 %
14.10.2021 18:56 13,6 C 12,8 C 11,7 C 86 % 1022,2 hPa 0,0 l/m 0 min 0 min 0 W/m 3,2 km/h (1 Bft) 100,00 %
14.10.2021 18:58 13,6 C 12,8 C 11,7 C 86 % 1022,1 hPa 0,0 l/m 0 min 0 min 0 W/m 6,4 km/h (2 Bft) 97,87 %
14.10.2021 19:00 13,5 C 12,8 C 11,7 C 86 % 1022,1 hPa 0,0 l/m 0 min 0 min 0 W/m 6,4 km/h (2 Bft) 100,00 %
14.10.2021 19:02 13,5 C 12,8 C 11,7 C 86 % 1022,2 hPa 0,0 l/m 0 min 0 min 0 W/m 6,4 km/h (2 Bft) 97,87 %
14.10.2021 19:04 13,5 C 12,8 C 11,7 C 86 % 1022,2 hPa 0,0 l/m 0 min 0 min 0 W/m 3,2 km/h (1 Bft) 100,00 %
14.10.2021 19:06 13,5 C 12,8 C 11,1 C 86 % 1022,2 hPa 0,0 l/m 0 min 0 min 0 W/m 6,4 km/h (2 Bft) 100,00 %
14.10.2021 19:08 13,5 C 12,8 C 11,1 C 87 % 1022,2 hPa 0,0 l/m 0 min 0 min 0 W/m 6,4 km/h (2 Bft) 97,87 %
14.10.2021 19:10 13,5 C 12,8 C 11,1 C 87 % 1022,2 hPa 0,0 l/m 0 min 0 min 0 W/m 9,7 km/h (2 Bft) 97,87 %
14.10.2021 19:12 13,4 C 12,8 C 11,1 C 86 % 1022,2 hPa 0,0 l/m 0 min 0 min 0 W/m 6,4 km/h (2 Bft) 100,00 %
14.10.2021 19:14 13,4 C 12,8 C 11,1 C 86 % 1022,2 hPa 0,0 l/m 0 min 0 min 0 W/m 3,2 km/h (1 Bft) 100,00 %
14.10.2021 19:16 13,4 C 12,8 C 11,1 C 86 % 1022,2 hPa 0,0 l/m 0 min 0 min 0 W/m 6,4 km/h (2 Bft) 100,00 %
14.10.2021 19:18 13,4 C 12,8 C 11,1 C 87 % 1022,2 hPa 0,0 l/m 0 min 0 min 0 W/m 3,2 km/h (1 Bft) 100,00 %
14.10.2021 19:20 13,4 C 12,8 C 11,1 C 87 % 1022,2 hPa 0,0 l/m 0 min 0 min 0 W/m 3,2 km/h (1 Bft) 100,00 %
14.10.2021 19:22 13,4 C 12,8 C 11,1 C 87 % 1022,2 hPa 0,0 l/m 0 min 0 min 0 W/m 6,4 km/h (2 Bft) 100,00 %
14.10.2021 19:24 13,4 C 12,8 C 11,1 C 87 % 1022,2 hPa 0,0 l/m 0 min 0 min 0 W/m 6,4 km/h (2 Bft) 100,00 %
14.10.2021 19:26 13,3 C 12,8 C 11,1 C 87 % 1022,2 hPa 0,0 l/m 0 min 0 min 0 W/m 3,2 km/h (1 Bft) 100,00 %
14.10.2021 19:28 13,3 C 12,2 C 11,1 C 87 % 1022,2 hPa 0,0 l/m 0 min 0 min 0 W/m 9,7 km/h (2 Bft) 100,00 %
14.10.2021 19:30 13,3 C 12,2 C 11,1 C 87 % 1022,2 hPa 0,0 l/m 0 min 0 min 0 W/m 6,4 km/h (2 Bft) 100,00 %
14.10.2021 19:32 13,3 C 12,2 C 11,1 C 87 % 1022,2 hPa 0,0 l/m 0 min 0 min 0 W/m 12,9 km/h (3 Bft) 100,00 %
14.10.2021 19:34 13,3 C 12,2 C 11,1 C 87 % 1022,1 hPa 0,0 l/m 0 min 0 min 0 W/m 6,4 km/h (2 Bft) 97,87 %
14.10.2021 19:36 13,3 C 12,2 C 11,1 C 87 % 1022,2 hPa 0,0 l/m 0 min 0 min 0 W/m 6,4 km/h (2 Bft) 97,87 %
14.10.2021 19:38 13,2 C 12,2 C 11,1 C 87 % 1022,2 hPa 0,0 l/m 0 min 0 min 0 W/m 6,4 km/h (2 Bft) 95,65 %
14.10.2021 19:40 13,2 C 12,2 C 11,1 C 87 % 1022,2 hPa 0,0 l/m 0 min 0 min 0 W/m 6,4 km/h (2 Bft) 100,00 %
14.10.2021 19:42 13,2 C 12,2 C 11,1 C 87 % 1022,2 hPa 0,0 l/m 0 min 0 min 0 W/m 12,9 km/h (3 Bft) 100,00 %
14.10.2021 19:44 13,1 C 12,2 C 11,1 C 87 % 1022,1 hPa 0,0 l/m 0 min 0 min 0 W/m 9,7 km/h (2 Bft) 100,00 %
14.10.2021 19:46 13,1 C 12,2 C 11,1 C 87 % 1022,2 hPa 0,0 l/m 0 min 0 min 0 W/m 6,4 km/h (2 Bft) 97,87 %
14.10.2021 19:48 13,1 C 12,2 C 11,1 C 87 % 1022,1 hPa 0,0 l/m 0 min 0 min 0 W/m 9,7 km/h (2 Bft) 97,83 %
14.10.2021 19:50 13,1 C 12,2 C 11,1 C 87 % 1022,1 hPa 0,0 l/m 0 min 0 min 0 W/m 19,3 km/h (3 Bft) 97,87 %
14.10.2021 19:52 13,1 C 12,2 C 11,1 C 87 % 1022,1 hPa 0,0 l/m 0 min 0 min 0 W/m 16,1 km/h (3 Bft) 95,74 %
14.10.2021 19:54 13,1 C 12,2 C 11,1 C 87 % 1022,0 hPa 0,0 l/m 0 min 0 min 0 W/m 16,1 km/h (3 Bft) 95,74 %
14.10.2021 19:56 13,0 C 12,2 C 11,1 C 87 % 1022,1 hPa 0,0 l/m 0 min 0 min 0 W/m 12,9 km/h (3 Bft) 97,87 %
14.10.2021 19:58 13,1 C 12,2 C 11,1 C 87 % 1022,0 hPa 0,0 l/m 0 min 0 min 0 W/m 16,1 km/h (3 Bft) 98,15 %
14.10.2021 20:00 13,0 C 12,2 C 11,1 C 87 % 1022,0 hPa 0,0 l/m 0 min 0 min 0 W/m 12,9 km/h (3 Bft) 97,37 %
14.10.2021 20:02 13,0 C 12,2 C 11,1 C 87 % 1022,0 hPa 0,0 l/m 0 min 0 min 0 W/m 16,1 km/h (3 Bft) 97,92 %
14.10.2021 20:04 13,0 C 12,2 C 11,1 C 87 % 1021,9 hPa 0,0 l/m 0 min 0 min 0 W/m 9,7 km/h (2 Bft) 97,87 %
14.10.2021 20:06 13,0 C 12,2 C 11,1 C 87 % 1021,9 hPa 0,0 l/m 0 min 0 min 0 W/m 9,7 km/h (2 Bft) 97,87 %
14.10.2021 20:08 13,0 C 12,2 C 11,1 C 87 % 1021,9 hPa 0,0 l/m 0 min 0 min 0 W/m 6,4 km/h (2 Bft) 98,15 %
14.10.2021 20:10 13,0 C 12,2 C 11,1 C 87 % 1021,9 hPa 0,0 l/m 0 min 0 min 0 W/m 16,1 km/h (3 Bft) 97,87 %
14.10.2021 20:12 13,0 C 12,2 C 11,1 C 87 % 1021,9 hPa 0,0 l/m 0 min 0 min 0 W/m 6,4 km/h (2 Bft) 97,37 %
14.10.2021 20:14 13,0 C 12,2 C 11,1 C 87 % 1021,9 hPa 0,0 l/m 0 min 0 min 0 W/m 12,9 km/h (3 Bft) 97,87 %
14.10.2021 20:16 13,0 C 12,2 C 11,1 C 87 % 1021,9 hPa 0,0 l/m 0 min 0 min 0 W/m 6,4 km/h (2 Bft) 97,92 %
14.10.2021 20:18 13,0 C 12,2 C 11,1 C 87 % 1021,9 hPa 0,0 l/m 0 min 0 min 0 W/m 6,4 km/h (2 Bft) 93,62 %
14.10.2021 20:20 13,0 C 12,2 C 11,1 C 87 % 1021,9 hPa 0,0 l/m 0 min 0 min 0 W/m 3,2 km/h (1 Bft) 96,30 %
14.10.2021 20:22 13,0 C 12,2 C 11,1 C 87 % 1021,9 hPa 0,0 l/m 0 min 0 min 0 W/m 3,2 km/h (1 Bft) 89,47 %
14.10.2021 20:24 13,0 C 12,2 C 11,1 C 87 % 1021,8 hPa 0,0 l/m 0 min 0 min 0 W/m 6,4 km/h (2 Bft) 95,83 %
14.10.2021 20:26 13,0 C 12,2 C 11,1 C 87 % 1021,8 hPa 0,0 l/m 0 min 0 min 0 W/m 9,7 km/h (2 Bft) 97,87 %
14.10.2021 20:28 12,9 C 12,2 C 11,1 C 87 % 1021,8 hPa 0,0 l/m 0 min 0 min 0 W/m 6,4 km/h (2 Bft) 93,62 %
14.10.2021 20:30 12,9 C 12,2 C 11,1 C 87 % 1021,7 hPa 0,0 l/m 0 min 0 min 0 W/m 12,9 km/h (3 Bft) 98,15 %
14.10.2021 20:32 12,9 C 12,2 C 11,1 C 87 % 1021,7 hPa 0,0 l/m 0 min 0 min 0 W/m 12,9 km/h (3 Bft) 95,74 %
14.10.2021 20:34 12,9 C 12,2 C 11,1 C 87 % 1021,7 hPa 0,0 l/m 0 min 0 min 0 W/m 12,9 km/h (3 Bft) 94,74 %
14.10.2021 20:36 12,9 C 12,2 C 11,1 C 87 % 1021,7 hPa 0,0 l/m 0 min 0 min 0 W/m 6,4 km/h (2 Bft) 89,58 %
14.10.2021 20:38 12,9 C 12,2 C 11,1 C 87 % 1021,6 hPa 0,0 l/m 0 min 0 min 0 W/m 6,4 km/h (2 Bft) 95,74 %
14.10.2021 20:40 12,9 C 12,2 C 11,1 C 87 % 1021,6 hPa 0,0 l/m 0 min 0 min 0 W/m 6,4 km/h (2 Bft) 93,62 %
14.10.2021 20:42 12,9 C 12,2 C 11,1 C 88 % 1021,6 hPa 0,0 l/m 0 min 0 min 0 W/m 6,4 km/h (2 Bft) 93,62 %
14.10.2021 20:44 12,9 C 12,2 C 11,1 C 88 % 1021,6 hPa 0,0 l/m 0 min 0 min 0 W/m 6,4 km/h (2 Bft) 95,74 %
14.10.2021 20:46 12,9 C 12,2 C 11,1 C 87 % 1021,6 hPa 0,0 l/m 0 min 0 min 0 W/m 3,2 km/h (1 Bft) 95,74 %
14.10.2021 20:48 12,9 C 12,2 C 11,1 C 87 % 1021,6 hPa 0,0 l/m 0 min 0 min 0 W/m 6,4 km/h (2 Bft) 93,48 %
14.10.2021 20:50 12,9 C 12,2 C 11,1 C 87 % 1021,5 hPa 0,0 l/m 0 min 0 min 0 W/m 6,4 km/h (2 Bft) 94,44 %
14.10.2021 20:52 12,9 C 12,2 C 11,1 C 87 % 1021,5 hPa 0,0 l/m 0 min 0 min 0 W/m 9,7 km/h (2 Bft) 97,37 %
14.10.2021 20:54 12,9 C 12,2 C 11,1 C 87 % 1021,5 hPa 0,0 l/m 0 min 0 min 0 W/m 6,4 km/h (2 Bft) 93,88 %
14.10.2021 20:56 12,9 C 12,2 C 11,1 C 87 % 1021,5 hPa 0,0 l/m 0 min 0 min 0 W/m 12,9 km/h (3 Bft) 95,74 %
14.10.2021 20:58 12,9 C 12,2 C 11,1 C 87 % 1021,5 hPa 0,0 l/m 0 min 0 min 0 W/m 6,4 km/h (2 Bft) 95,65 %
14.10.2021 21:00 12,9 C 12,2 C 11,1 C 87 % 1021,5 hPa 0,0 l/m 0 min 0 min 0 W/m 6,4 km/h (2 Bft) 96,36 %
14.10.2021 21:02 12,8 C 12,2 C 11,1 C 87 % 1021,5 hPa 0,0 l/m 0 min 0 min 0 W/m 6,4 km/h (2 Bft) 94,74 %
14.10.2021 21:04 12,8 C 12,2 C 11,1 C 87 % 1021,4 hPa 0,0 l/m 0 min 0 min 0 W/m 6,4 km/h (2 Bft) 95,65 %
14.10.2021 21:06 12,8 C 12,2 C 11,1 C 87 % 1021,5 hPa 0,0 l/m 0 min 0 min 0 W/m 6,4 km/h (2 Bft) 95,92 %
14.10.2021 21:08 12,8 C 12,2 C 11,1 C 87 % 1021,5 hPa 0,0 l/m 0 min 0 min 0 W/m 6,4 km/h (2 Bft) 95,74 %
14.10.2021 21:10 12,8 C 12,2 C 11,1 C 87 % 1021,5 hPa 0,0 l/m 0 min 0 min 0 W/m 6,4 km/h (2 Bft) 97,83 %
14.10.2021 21:12 12,8 C 12,2 C 11,1 C 87 % 1021,4 hPa 0,0 l/m 0 min 0 min 0 W/m 9,7 km/h (2 Bft) 97,87 %
14.10.2021 21:14 12,8 C 12,2 C 11,1 C 87 % 1021,4 hPa 0,0 l/m 0 min 0 min 0 W/m 6,4 km/h (2 Bft) 97,87 %
14.10.2021 21:16 12,8 C 12,2 C 11,1 C 87 % 1021,4 hPa 0,0 l/m 0 min 0 min 0 W/m 12,9 km/h (3 Bft) 94,44 %
14.10.2021 21:18 12,8 C 12,2 C 11,1 C 87 % 1021,4 hPa 0,0 l/m 0 min 0 min 0 W/m 12,9 km/h (3 Bft) 97,87 %
14.10.2021 21:20 12,8 C 12,2 C 11,1 C 87 % 1021,4 hPa 0,0 l/m 0 min 0 min 0 W/m 12,9 km/h (3 Bft) 97,87 %
14.10.2021 21:22 12,8 C 12,2 C 11,1 C 87 % 1021,4 hPa 0,0 l/m 0 min 0 min 0 W/m 6,4 km/h (2 Bft) 97,87 %
14.10.2021 21:24 12,8 C 12,2 C 11,1 C 87 % 1021,4 hPa 0,0 l/m 0 min 0 min 0 W/m 6,4 km/h (2 Bft) 95,65 %
14.10.2021 21:26 12,8 C 12,2 C 11,1 C 86 % 1021,3 hPa 0,0 l/m 0 min 0 min 0 W/m 9,7 km/h (2 Bft) 97,87 %
14.10.2021 21:28 12,8 C 12,2 C 11,1 C 86 % 1021,3 hPa 0,0 l/m 0 min 0 min 0 W/m 12,9 km/h (3 Bft) 97,87 %
14.10.2021 21:30 12,8 C 12,2 C 11,1 C 86 % 1021,2 hPa 0,0 l/m 0 min 0 min 0 W/m 12,9 km/h (3 Bft) 97,87 %
14.10.2021 21:32 12,7 C 12,2 C 11,1 C 86 % 1021,2 hPa 0,0 l/m 0 min 0 min 0 W/m 9,7 km/h (2 Bft) 95,74 %
14.10.2021 21:34 12,8 C 12,2 C 11,1 C 86 % 1021,2 hPa 0,0 l/m 0 min 0 min 0 W/m 9,7 km/h (2 Bft) 97,87 %
14.10.2021 21:36 12,7 C 12,2 C 11,1 C 86 % 1021,2 hPa 0,0 l/m 0 min 0 min 0 W/m 12,9 km/h (3 Bft) 100,00 %
14.10.2021 21:38 12,8 C 12,2 C 11,1 C 86 % 1021,1 hPa 0,0 l/m 0 min 0 min 0 W/m 16,1 km/h (3 Bft) 100,00 %
14.10.2021 21:40 12,8 C 12,2 C 11,1 C 85 % 1021,2 hPa 0,0 l/m 0 min 0 min 0 W/m 6,4 km/h (2 Bft) 97,87 %
14.10.2021 21:42 12,8 C 12,2 C 11,1 C 85 % 1021,2 hPa 0,0 l/m 0 min 0 min 0 W/m 6,4 km/h (2 Bft) 97,87 %
14.10.2021 21:44 12,8 C 12,2 C 11,1 C 85 % 1021,1 hPa 0,0 l/m 0 min 0 min 0 W/m 6,4 km/h (2 Bft) 97,87 %
14.10.2021 21:46 12,7 C 12,2 C 11,1 C 85 % 1021,2 hPa 0,0 l/m 0 min 0 min 0 W/m 12,9 km/h (3 Bft) 97,87 %
14.10.2021 21:48 12,7 C 12,2 C 11,1 C 85 % 1021,1 hPa 0,0 l/m 0 min 0 min 0 W/m 9,7 km/h (2 Bft) 97,83 %
14.10.2021 21:50 12,7 C 12,2 C 11,1 C 85 % 1021,1 hPa 0,0 l/m 0 min 0 min 0 W/m 12,9 km/h (3 Bft) 97,87 %
14.10.2021 21:52 12,7 C 12,2 C 11,1 C 85 % 1021,0 hPa 0,0 l/m 0 min 0 min 0 W/m 19,3 km/h (3 Bft) 95,74 %
14.10.2021 21:54 12,7 C 12,2 C 11,1 C 85 % 1021,0 hPa 0,0 l/m 0 min 0 min 0 W/m 16,1 km/h (3 Bft) 93,62 %
14.10.2021 21:56 12,7 C 12,2 C 11,1 C 85 % 1021,0 hPa 0,0 l/m 0 min 0 min 0 W/m 12,9 km/h (3 Bft) 97,87 %
14.10.2021 21:58 12,7 C 12,2 C 11,1 C 85 % 1021,0 hPa 0,0 l/m 0 min 0 min 0 W/m 12,9 km/h (3 Bft) 97,87 %
14.10.2021 22:00 12,7 C 12,2 C 11,1 C 85 % 1021,0 hPa 0,0 l/m 0 min 0 min 0 W/m 12,9 km/h (3 Bft) 97,83 %
14.10.2021 22:02 12,7 C 12,2 C 11,1 C 85 % 1021,0 hPa 0,0 l/m 0 min 0 min 0 W/m 9,7 km/h (2 Bft) 95,74 %
14.10.2021 22:04 12,7 C 12,2 C 11,1 C 85 % 1021,0 hPa 0,0 l/m 0 min 0 min 0 W/m 9,7 km/h (2 Bft) 97,87 %
14.10.2021 22:06 12,7 C 12,2 C 11,1 C 85 % 1021,0 hPa 0,0 l/m 0 min 0 min 0 W/m 6,4 km/h (2 Bft) 97,87 %
14.10.2021 22:08 12,7 C 12,2 C 11,1 C 85 % 1021,0 hPa 0,0 l/m 0 min 0 min 0 W/m 9,7 km/h (2 Bft) 100,00 %
14.10.2021 22:10 12,7 C 12,2 C 11,1 C 85 % 1021,0 hPa 0,0 l/m 0 min 0 min 0 W/m 9,7 km/h (2 Bft) 95,74 %
14.10.2021 22:12 12,7 C 12,2 C 11,1 C 85 % 1021,0 hPa 0,0 l/m 0 min 0 min 0 W/m 6,4 km/h (2 Bft) 95,74 %
14.10.2021 22:14 12,7 C 12,2 C 11,1 C 85 % 1021,0 hPa 0,0 l/m 0 min 0 min 0 W/m 9,7 km/h (2 Bft) 100,00 %
14.10.2021 22:16 12,7 C 12,2 C 11,1 C 85 % 1021,0 hPa 0,0 l/m 0 min 0 min 0 W/m 19,3 km/h (3 Bft) 100,00 %
14.10.2021 22:18 12,7 C 12,2 C 11,1 C 85 % 1021,0 hPa 0,0 l/m 0 min 0 min 0 W/m 19,3 km/h (3 Bft) 100,00 %
14.10.2021 22:20 12,7 C 12,2 C 11,1 C 85 % 1021,0 hPa 0,0 l/m 0 min 0 min 0 W/m 12,9 km/h (3 Bft) 95,74 %
14.10.2021 22:22 12,7 C 12,2 C 11,1 C 85 % 1021,0 hPa 0,0 l/m 0 min 0 min 0 W/m 12,9 km/h (3 Bft) 100,00 %
14.10.2021 22:24 12,7 C 12,2 C 11,1 C 85 % 1021,0 hPa 0,0 l/m 0 min 0 min 0 W/m 16,1 km/h (3 Bft) 100,00 %
14.10.2021 22:26 12,7 C 12,2 C 10,6 C 85 % 1021,0 hPa 0,0 l/m 0 min 0 min 0 W/m 12,9 km/h (3 Bft) 100,00 %
14.10.2021 22:28 12,7 C 12,2 C 10,6 C 85 % 1020,9 hPa 0,0 l/m 0 min 0 min 0 W/m 16,1 km/h (3 Bft) 100,00 %
14.10.2021 22:30 12,6 C 12,2 C 10,6 C 85 % 1020,9 hPa 0,0 l/m 0 min 0 min 0 W/m 16,1 km/h (3 Bft) 100,00 %
14.10.2021 22:32 12,6 C 12,2 C 10,6 C 85 % 1020,9 hPa 0,0 l/m 0 min 0 min 0 W/m 9,7 km/h (2 Bft) 100,00 %
14.10.2021 22:34 12,6 C 12,2 C 10,6 C 85 % 1021,0 hPa 0,0 l/m 0 min 0 min 0 W/m 9,7 km/h (2 Bft) 97,87 %
14.10.2021 22:36 12,6 C 12,2 C 10,6 C 85 % 1021,0 hPa 0,0 l/m 0 min 0 min 0 W/m 9,7 km/h (2 Bft) 100,00 %
14.10.2021 22:38 12,6 C 12,2 C 10,6 C 85 % 1021,0 hPa 0,0 l/m 0 min 0 min 0 W/m 6,4 km/h (2 Bft) 100,00 %
14.10.2021 22:40 12,6 C 12,2 C 10,6 C 85 % 1020,9 hPa 0,0 l/m 0 min 0 min 0 W/m 19,3 km/h (3 Bft) 100,00 %
14.10.2021 22:42 12,6 C 12,2 C 10,6 C 85 % 1020,9 hPa 0,0 l/m 0 min 0 min 0 W/m 12,9 km/h (3 Bft) 100,00 %
14.10.2021 22:44 12,6 C 12,2 C 10,6 C 85 % 1020,9 hPa 0,0 l/m 0 min 0 min 0 W/m 9,7 km/h (2 Bft) 100,00 %
14.10.2021 22:46 12,6 C 12,2 C 10,6 C 85 % 1021,0 hPa 0,0 l/m 0 min 0 min 0 W/m 12,9 km/h (3 Bft) 100,00 %
14.10.2021 22:48 12,6 C 12,2 C 10,6 C 85 % 1020,9 hPa 0,0 l/m 0 min 0 min 0 W/m 12,9 km/h (3 Bft) 100,00 %
14.10.2021 22:50 12,6 C 12,2 C 10,6 C 85 % 1020,9 hPa 0,0 l/m 0 min 0 min 0 W/m 12,9 km/h (3 Bft) 97,87 %
14.10.2021 22:52 12,6 C 12,2 C 10,6 C 85 % 1020,9 hPa 0,0 l/m 0 min 0 min 0 W/m 6,4 km/h (2 Bft) 100,00 %
14.10.2021 22:54 12,6 C 12,2 C 10,6 C 85 % 1020,9 hPa 0,0 l/m 0 min 0 min 0 W/m 6,4 km/h (2 Bft) 100,00 %
14.10.2021 22:56 12,6 C 12,2 C 10,6 C 85 % 1020,9 hPa 0,0 l/m 0 min 0 min 0 W/m 12,9 km/h (3 Bft) 100,00 %
14.10.2021 22:58 12,6 C 12,2 C 10,6 C 85 % 1020,9 hPa 0,0 l/m 0 min 0 min 0 W/m 6,4 km/h (2 Bft) 100,00 %
14.10.2021 23:00 12,6 C 12,2 C 10,6 C 85 % 1020,8 hPa 0,0 l/m 0 min 0 min 0 W/m 12,9 km/h (3 Bft) 100,00 %
14.10.2021 23:02 12,6 C 12,2 C 10,6 C 85 % 1020,9 hPa 0,0 l/m 0 min 0 min 0 W/m 12,9 km/h (3 Bft) 100,00 %
14.10.2021 23:04 12,6 C 12,2 C 10,6 C 85 % 1020,8 hPa 0,0 l/m 0 min 0 min 0 W/m 12,9 km/h (3 Bft) 100,00 %
14.10.2021 23:06 12,6 C 12,2 C 10,6 C 85 % 1020,8 hPa 0,0 l/m 0 min 0 min 0 W/m 9,7 km/h (2 Bft) 95,74 %
14.10.2021 23:08 12,6 C 12,2 C 10,6 C 85 % 1020,7 hPa 0,0 l/m 0 min 0 min 0 W/m 12,9 km/h (3 Bft) 97,87 %
14.10.2021 23:10 12,6 C 12,2 C 10,6 C 85 % 1020,7 hPa 0,0 l/m 0 min 0 min 0 W/m 12,9 km/h (3 Bft) 100,00 %
14.10.2021 23:12 12,6 C 12,2 C 10,6 C 85 % 1020,7 hPa 0,0 l/m 0 min 0 min 0 W/m 12,9 km/h (3 Bft) 97,83 %
14.10.2021 23:14 12,6 C 12,2 C 10,6 C 85 % 1020,7 hPa 0,0 l/m 0 min 0 min 0 W/m 12,9 km/h (3 Bft) 95,74 %
14.10.2021 23:16 12,6 C 12,2 C 10,6 C 85 % 1020,7 hPa 0,0 l/m 0 min 0 min 0 W/m 16,1 km/h (3 Bft) 97,87 %
14.10.2021 23:18 12,6 C 12,2 C 10,6 C 85 % 1020,7 hPa 0,0 l/m 0 min 0 min 0 W/m 16,1 km/h (3 Bft) 93,62 %
14.10.2021 23:20 12,6 C 12,2 C 10,6 C 85 % 1020,6 hPa 0,0 l/m 0 min 0 min 0 W/m 16,1 km/h (3 Bft) 95,83 %
14.10.2021 23:22 12,6 C 12,2 C 10,6 C 85 % 1020,6 hPa 0,0 l/m 0 min 0 min 0 W/m 16,1 km/h (3 Bft) 95,74 %
14.10.2021 23:24 12,6 C 12,2 C 11,1 C 84 % 1020,6 hPa 0,0 l/m 0 min 0 min 0 W/m 16,1 km/h (3 Bft) 95,65 %
14.10.2021 23:26 12,6 C 12,2 C 10,6 C 84 % 1020,6 hPa 0,0 l/m 0 min 0 min 0 W/m 12,9 km/h (3 Bft) 95,74 %
14.10.2021 23:28 12,6 C 12,2 C 11,1 C 84 % 1020,6 hPa 0,0 l/m 0 min 0 min 0 W/m 19,3 km/h (3 Bft) 95,74 %
14.10.2021 23:30 12,6 C 12,2 C 11,1 C 84 % 1020,5 hPa 0,0 l/m 0 min 0 min 0 W/m 12,9 km/h (3 Bft) 93,62 %
14.10.2021 23:32 12,6 C 12,2 C 11,1 C 84 % 1020,5 hPa 0,0 l/m 0 min 0 min 0 W/m 16,1 km/h (3 Bft) 95,74 %
14.10.2021 23:34 12,7 C 12,2 C 11,1 C 84 % 1020,5 hPa 0,0 l/m 0 min 0 min 0 W/m 12,9 km/h (3 Bft) 91,30 %
14.10.2021 23:36 12,7 C 12,2 C 11,1 C 84 % 1020,5 hPa 0,0 l/m 0 min 0 min 0 W/m 16,1 km/h (3 Bft) 93,62 %
14.10.2021 23:38 12,7 C 12,2 C 11,1 C 84 % 1020,5 hPa 0,0 l/m 0 min 0 min 0 W/m 16,1 km/h (3 Bft) 89,36 %
14.10.2021 23:40 12,7 C 12,2 C 11,1 C 84 % 1020,4 hPa 0,0 l/m 0 min 0 min 0 W/m 12,9 km/h (3 Bft) 93,62 %
14.10.2021 23:42 12,7 C 12,2 C 11,1 C 84 % 1020,4 hPa 0,0 l/m 0 min 0 min 0 W/m 16,1 km/h (3 Bft) 93,62 %
14.10.2021 23:44 12,8 C 12,2 C 11,1 C 84 % 1020,4 hPa 0,0 l/m 0 min 0 min 0 W/m 19,3 km/h (3 Bft) 93,62 %
14.10.2021 23:46 12,8 C 12,2 C 11,1 C 84 % 1020,4 hPa 0,0 l/m 0 min 0 min 0 W/m 19,3 km/h (3 Bft) 93,48 %
14.10.2021 23:48 12,8 C 12,2 C 11,1 C 83 % 1020,4 hPa 0,0 l/m 0 min 0 min 0 W/m 6,4 km/h (2 Bft) 91,49 %
14.10.2021 23:50 12,8 C 12,2 C 11,1 C 83 % 1020,5 hPa 0,0 l/m 0 min 0 min 0 W/m 16,1 km/h (3 Bft) 93,62 %
14.10.2021 23:52 12,8 C 12,2 C 11,1 C 83 % 1020,4 hPa 0,0 l/m 0 min 0 min 0 W/m 16,1 km/h (3 Bft) 93,62 %
14.10.2021 23:54 12,8 C 12,2 C 11,1 C 83 % 1020,4 hPa 0,0 l/m 0 min 0 min 0 W/m 16,1 km/h (3 Bft) 93,62 %
14.10.2021 23:56 12,8 C 12,2 C 11,1 C 83 % 1020,3 hPa 0,0 l/m 0 min 0 min 0 W/m 16,1 km/h (3 Bft) 93,62 %
14.10.2021 23:58 12,8 C 12,2 C 10,6 C 83 % 1020,3 hPa 0,0 l/m 0 min 0 min 0 W/m 16,1 km/h (3 Bft) 93,48 %
_ Min-Zeit 05:08 04:28 04:13 15:22 23:56 - - - - 00:00 23:38
Minimum _ 9,6 C 8,9 C 8,4 C 83 % 1020,3 hPa - - - - 0,0 km/h (0 Bft) 89,36 %
_ Max-Zeit 15:18 14:58 15:00 08:54 00:00 05:10 14:42 04:13 15:02 13:42 00:00
Maximum _ 15,5 C 15,6 C 13,9 C 96 % 1027,2 hPa 0,2 l/m 2 min 5 min 338 W/m 25,7 km/h
SO (4 Bft)
100,00 %
Durchschnitt _ 11,9 C 11,4 C 10,5 C 90 % 1024,3 hPa #0,4 l/m #1:02 h #16 min. 102 W/m 9,8 km/h (2 Bft) 97,44 %
© 2021 W. Hausmann